M I D A S
Marine Information and Data Acquisition System
Tripno 2261 of the Zeeleeuw from 2012-02-08 07:52:53 to 2012-02-08 13:34:05
Back to CruiseResearch ActivitiesStationsMapUnderway DataData graphs

EquipmentUnitsComment
TimeDGPSUTC
LatitudeDGPSDM.mWGS84
LongitudeDGPSDM.mWGS84
TemperatureSBE03/SBE38deg celciusITS90
ConductivitySBE21S/mITS90
SalinitySBE21 Practical Salinity Units
ChlorophylAChelsea fluorimeterg/lCalibrated in Aceton
Missing or incorrect values are displayed as -999
Sea surface data collected by the RV Zeeleeuw from 2012-02-08 07:32:44 to 2012-02-08 13:44:23
                                                                                    Next 1000 lines
Time Latitude Longitude Temperature Conductivity Salinity ChlorophylA
2012-02-08 07:32:55 51°13.637 2°56.018 10.813 0.070471 0.401914 -1.326982
2012-02-08 07:32:59 51°13.637 2°56.018 10.8149 0.070471 0.401906 -1.326982
2012-02-08 07:33:04 51°13.637 2°56.018 10.8128 0.068928 0.392812 -1.326982
2012-02-08 07:33:10 51°13.637 2°56.019 10.8146 0.068928 0.392812 -1.326982
2012-02-08 07:33:14 51°13.637 2°56.019 10.8159 0.069957 0.398874 -1.326982
2012-02-08 07:33:20 51°13.637 2°56.019 10.8156 0.070676 0.403112 -1.326982
2012-02-08 07:33:24 51°13.637 2°56.019 10.8162 0.070059 0.399473 -1.326982
2012-02-08 07:33:29 51°13.637 2°56.019 10.8159 0.069648 0.397047 -1.326982
2012-02-08 07:33:34 51°13.637 2°56.019 10.8163 0.069648 0.397047 -1.326982
2012-02-08 07:33:39 51°13.637 2°56.019 10.8184 0.070059 0.399473 -1.326982
2012-02-08 07:33:44 51°13.637 2°56.019 10.8192 0.070573 0.402506 -1.326982
2012-02-08 07:33:49 51°13.637 2°56.019 10.8197 0.070676 0.403105 -1.326982
2012-02-08 07:33:54 51°13.636 2°56.018 10.8205 0.070265 0.400678 -1.326982
2012-02-08 07:34:00 51°13.636 2°56.018 10.8216 0.070471 0.401891 -1.326982
2012-02-08 07:34:05 51°13.636 2°56.018 10.8214 0.069957 0.398859 -1.326982
2012-02-08 07:34:09 51°13.636 2°56.019 10.822 0.069957 0.398859 -1.326982
2012-02-08 07:34:14 51°13.636 2°56.019 10.8228 0.070471 0.401884 -1.326982
2012-02-08 07:34:19 51°13.636 2°56.018 10.8222 0.070162 0.400064 -1.326982
2012-02-08 07:34:24 51°13.636 2°56.018 10.8203 0.070573 0.402491 -1.326982
2012-02-08 07:34:30 51°13.635 2°56.019 10.8203 0.070265 0.400663 -1.326982
2012-02-08 07:34:34 51°13.635 2°56.018 10.8201 0.069957 0.398844 -1.326982
2012-02-08 07:34:40 51°13.635 2°56.019 10.818 0.069957 0.398844 -1.326982
2012-02-08 07:34:45 51°13.635 2°56.019 10.8117 0.070471 0.401869 -1.326982
2012-02-08 07:34:49 51°13.635 2°56.019 10.8103 0.070573 0.402476 -1.326982
2012-02-08 07:34:54 51°13.635 2°56.018 10.809 0.070676 0.403082 -1.326982
2012-02-08 07:34:59 51°13.636 2°56.018 10.8151 0.070676 0.403082 -1.326982
2012-02-08 07:35:04 51°13.636 2°56.018 10.8185 0.070162 0.400042 -1.326982
2012-02-08 07:35:09 51°13.636 2°56.017 10.8184 0.070162 0.400042 -1.326982
2012-02-08 07:35:14 51°13.636 2°56.018 10.82 0.069751 0.397616 -1.326982
2012-02-08 07:35:19 51°13.636 2°56.018 10.8213 0.069751 0.397609 -1.326982
2012-02-08 07:35:24 51°13.635 2°56.019 10.8313 0.070059 0.399428 -1.326982
2012-02-08 07:35:30 51°13.635 2°56.018 10.8215 0.070368 0.401255 -1.326982
2012-02-08 07:35:35 51°13.636 2°56.018 10.8332 0.070368 0.401255 -1.326982
2012-02-08 07:35:39 51°13.636 2°56.018 10.8684 0.071293 0.406716 -1.326982
2012-02-08 07:35:45 51°13.636 2°56.018 10.8607 0.071088 0.405502 -1.326982
2012-02-08 07:35:50 51°13.636 2°56.018 10.8398 0.070779 0.403681 -1.326982
2012-02-08 07:35:54 51°13.636 2°56.018 10.8266 0.070676 0.403075 -1.326982
2012-02-08 07:35:59 51°13.636 2°56.018 10.8172 0.070676 0.403067 -1.326982
2012-02-08 07:36:04 51°13.636 2°56.018 10.8189 0.071088 0.405494 -1.326982
2012-02-08 07:36:10 51°13.636 2°56.018 10.8187 0.071088 0.405494 -1.326982
2012-02-08 07:36:14 51°13.635 2°56.018 10.8195 0.070985 0.404888 -1.326982
2012-02-08 07:36:19 51°13.636 2°56.019 10.8275 0.070162 0.400027 -1.326982
2012-02-08 07:36:24 51°13.636 2°56.018 10.8309 0.069854 0.398208 -1.326982
2012-02-08 07:36:29 51°13.636 2°56.018 10.8367 0.069957 0.398806 -1.326982
2012-02-08 07:36:34 51°13.636 2°56.018 10.8358 0.069545 0.396382 -1.326982
2012-02-08 07:36:39 51°13.636 2°56.018 10.8322 0.069545 0.396382 -1.326982
2012-02-08 07:36:44 51°13.636 2°56.018 10.8506 0.069854 0.398193 -1.326982
2012-02-08 07:36:50 51°13.636 2°56.018 10.8401 0.070059 0.399405 -1.326982
2012-02-08 07:36:55 51°13.636 2°56.018 10.8512 0.071088 0.405479 -1.326982
2012-02-08 07:36:59 51°13.636 2°56.018 10.8532 0.07119 0.406086 -1.326982
2012-02-08 07:37:04 51°13.636 2°56.018 10.8503 0.071293 0.406701 -1.326982
2012-02-08 07:37:09 51°13.636 2°56.018 10.8471 0.071293 0.406701 -1.326982
2012-02-08 07:37:14 51°13.636 2°56.019 10.8511 0.070676 0.403052 -1.326982
2012-02-08 07:37:19 51°13.636 2°56.019 10.8427 0.069957 0.398806 -1.326982
2012-02-08 07:37:24 51°13.636 2°56.018 10.8524 0.069751 0.397586 -1.326982
2012-02-08 07:37:29 51°13.636 2°56.019 10.8486 0.070059 0.399405 -1.326982
2012-02-08 07:37:34 51°13.636 2°56.019 10.8508 0.070059 0.399405 -1.326982
2012-02-08 07:37:40 51°13.636 2°56.018 10.8467 0.070985 0.404865 -1.326982
2012-02-08 07:37:45 51°13.637 2°56.017 10.8443 0.070779 0.403644 -1.326982
2012-02-08 07:37:49 51°13.637 2°56.018 10.8354 0.071088 0.405464 -1.326982
2012-02-08 07:37:54 51°13.636 2°56.018 10.8309 0.071602 0.408491 -1.326982
2012-02-08 07:38:00 51°13.636 2°56.019 10.838 0.071807 0.409706 -1.326982
2012-02-08 07:38:04 51°13.636 2°56.019 10.8286 0.070882 0.404243 -1.326982
2012-02-08 07:38:09 51°13.636 2°56.019 10.8367 0.070882 0.404243 -1.326982
2012-02-08 07:38:13 51°13.636 2°56.019 10.8279 0.070471 0.401809 -1.326982
2012-02-08 07:38:19 51°13.635 2°56.019 10.8292 0.070368 0.401202 -1.326982
2012-02-08 07:38:25 51°13.635 2°56.019 10.8358 0.070059 0.399376 -1.326982
2012-02-08 07:38:29 51°13.636 2°56.018 10.841 0.069442 0.395738 -1.326982
2012-02-08 07:38:34 51°13.636 2°56.018 10.8383 0.069442 0.395731 -1.326982
2012-02-08 07:38:39 51°13.636 2°56.018 10.8289 0.069442 0.395731 -1.326982
2012-02-08 07:38:44 51°13.636 2°56.019 10.8305 0.070985 0.404827 -1.326982
2012-02-08 07:38:49 51°13.635 2°56.019 10.8402 0.07119 0.406048 -1.326982
2012-02-08 07:38:55 51°13.635 2°56.019 10.843 0.070059 0.399368 -1.326982
2012-02-08 07:38:59 51°13.635 2°56.019 10.8468 0.069545 0.396337 -1.326982
2012-02-08 07:39:04 51°13.636 2°56.019 10.8466 0.069545 0.396337 -1.326982
2012-02-08 07:39:10 51°13.636 2°56.019 10.8471 0.069648 0.396936 -1.326982
2012-02-08 07:39:14 51°13.636 2°56.019 10.8484 0.070162 0.399967 -1.326982
2012-02-08 07:39:19 51°13.636 2°56.019 10.8456 0.070985 0.404812 -1.326982
2012-02-08 07:39:24 51°13.636 2°56.019 10.8386 0.070779 0.403598 -1.326982
2012-02-08 07:39:29 51°13.636 2°56.019 10.8348 0.071499 0.407846 -1.326982
2012-02-08 07:39:34 51°13.636 2°56.019 10.8309 0.070882 0.404213 -1.326982
2012-02-08 07:39:39 51°13.636 2°56.019 10.8413 0.070882 0.404213 -1.326982
2012-02-08 07:39:44 51°13.636 2°56.019 10.8501 0.070985 0.404812 -1.326982
2012-02-08 07:39:48 51°13.636 2°56.019 10.8537 0.071704 0.40906 -1.326982
2012-02-08 07:39:54 51°13.636 2°56.019 10.8637 0.070882 0.404205 -1.326982
2012-02-08 07:39:59 51°13.636 2°56.018 10.8645 0.070676 0.402984 -1.326982
2012-02-08 07:40:03 51°13.637 2°56.018 10.8625 0.070985 0.404804 -1.326982
2012-02-08 07:40:08 51°13.637 2°56.018 10.864 0.070985 0.404804 -1.326982
2012-02-08 07:40:13 51°13.637 2°56.018 10.8607 0.070676 0.402977 -1.326982
2012-02-08 07:40:20 51°13.636 2°56.018 10.8593 0.070676 0.402977 -1.326982
2012-02-08 07:40:24 51°13.636 2°56.019 10.8576 0.070573 0.402363 -1.326982
2012-02-08 07:40:29 51°13.636 2°56.019 10.8543 0.070162 0.399937 -1.326982
2012-02-08 07:40:34 51°13.636 2°56.019 10.8544 0.069957 0.398717 -1.326982
2012-02-08 07:40:38 51°13.636 2°56.019 10.854 0.069957 0.398717 -1.326982
2012-02-08 07:40:44 51°13.636 2°56.018 10.8524 0.069442 0.395687 -1.326982
2012-02-08 07:40:48 51°13.636 2°56.018 10.8546 0.069237 0.394467 -1.326982
2012-02-08 07:40:53 51°13.636 2°56.018 10.8551 0.070162 0.39993 -1.326982
2012-02-08 07:40:58 51°13.635 2°56.019 10.8555 0.070368 0.401142 -1.326982
2012-02-08 07:41:04 51°13.636 2°56.019 10.8575 0.070368 0.401142 -1.326982
2012-02-08 07:41:10 51°13.636 2°56.019 10.8596 0.070676 0.402962 -1.326982
2012-02-08 07:41:14 51°13.636 2°56.019 10.8627 0.070059 0.399323 -1.326982
2012-02-08 07:41:20 51°13.636 2°56.019 10.8614 0.069957 0.39871 -1.326982
2012-02-08 07:41:24 51°13.636 2°56.019 10.8611 0.07119 0.405987 -1.326982
2012-02-08 07:41:28 51°13.636 2°56.019 10.8615 0.071293 0.406594 -1.326982
2012-02-08 07:41:33 51°13.636 2°56.019 10.8598 0.071602 0.408415 -1.326982
2012-02-08 07:41:38 51°13.636 2°56.018 10.8635 0.071602 0.408415 -1.326982
2012-02-08 07:41:44 51°13.636 2°56.019 10.8701 0.07119 0.405987 -1.326982
2012-02-08 07:41:49 51°13.636 2°56.019 10.8733 0.071088 0.405381 -1.326982
2012-02-08 07:41:54 51°13.636 2°56.019 10.871 0.070573 0.40234 -1.326982
2012-02-08 07:41:59 51°13.636 2°56.019 10.8687 0.070779 0.403546 -1.326982
2012-02-08 07:42:04 51°13.636 2°56.019 10.8726 0.070882 0.404152 -1.326982
2012-02-08 07:42:09 51°13.636 2°56.019 10.8719 0.070882 0.404152 -1.326982
2012-02-08 07:42:14 51°13.636 2°56.019 10.8711 0.071396 0.407178 -1.326982
2012-02-08 07:42:20 51°13.636 2°56.019 10.8757 0.07119 0.405965 -1.326982
2012-02-08 07:42:25 51°13.636 2°56.019 10.8732 0.071499 0.407785 -1.326982
2012-02-08 07:42:30 51°13.636 2°56.019 10.8738 0.071396 0.407171 -1.326982
2012-02-08 07:42:35 51°13.636 2°56.019 10.8741 0.071396 0.407171 -1.326982
2012-02-08 07:42:39 51°13.637 2°56.019 10.8703 0.071088 0.40535 -1.326982
2012-02-08 07:42:44 51°13.637 2°56.019 10.8733 0.070059 0.399286 -1.326982
2012-02-08 07:42:49 51°13.637 2°56.018 10.8716 0.070573 0.40231 -1.326982
2012-02-08 07:42:54 51°13.636 2°56.019 10.8726 0.070265 0.400483 -1.326982
2012-02-08 07:42:59 51°13.636 2°56.019 10.8763 0.069854 0.398059 -1.326982
2012-02-08 07:43:05 51°13.636 2°56.019 10.8703 0.070265 0.400483 -1.326982
2012-02-08 07:43:09 51°13.636 2°56.019 10.8719 0.070265 0.400483 -1.326982
2012-02-08 07:43:14 51°13.636 2°56.019 10.8736 0.070368 0.40109 -1.326982
2012-02-08 07:43:20 51°13.636 2°56.019 10.8744 0.070059 0.399271 -1.326982
2012-02-08 07:43:24 51°13.636 2°56.019 10.8744 0.070368 0.401082 -1.326982
2012-02-08 07:43:30 51°13.636 2°56.019 10.8751 0.070265 0.400476 -1.326982
2012-02-08 07:43:35 51°13.636 2°56.018 10.8759 0.070162 0.399862 -1.326982
2012-02-08 07:43:40 51°13.636 2°56.019 10.8762 0.070162 0.399862 -1.326982
2012-02-08 07:43:44 51°13.636 2°56.019 10.8772 0.070059 0.399256 -1.326982
2012-02-08 07:43:50 51°13.636 2°56.02 10.8775 0.070059 0.399256 -1.326982
2012-02-08 07:43:55 51°13.636 2°56.019 10.8777 0.070162 0.399855 -1.326982
2012-02-08 07:43:59 51°13.636 2°56.019 10.8764 0.069854 0.398036 -1.326982
2012-02-08 07:44:04 51°13.636 2°56.019 10.8755 0.069751 0.39743 -1.326982
2012-02-08 07:44:09 51°13.636 2°56.019 10.8732 0.069751 0.39743 -1.326982
2012-02-08 07:44:14 51°13.636 2°56.02 10.8713 0.070059 0.399249 -1.326982
2012-02-08 07:44:19 51°13.637 2°56.02 10.8731 0.069957 0.398635 -1.326982
2012-02-08 07:44:24 51°13.636 2°56.02 10.8744 0.069751 0.397423 -1.326982
2012-02-08 07:44:29 51°13.636 2°56.02 10.8738 0.069957 0.398635 -1.326982
2012-02-08 07:44:33 51°13.636 2°56.02 10.8753 0.069957 0.398635 -1.326982
2012-02-08 07:44:40 51°13.637 2°56.019 10.8762 0.070265 0.400453 -1.326982
2012-02-08 07:44:45 51°13.637 2°56.019 10.8754 0.070162 0.39984 -1.326982
2012-02-08 07:44:49 51°13.637 2°56.02 10.8755 0.070368 0.401052 -1.326982
2012-02-08 07:44:54 51°13.637 2°56.019 10.8766 0.070882 0.404084 -1.326982
2012-02-08 07:44:59 51°13.637 2°56.019 10.8792 0.070882 0.404084 -1.326982
2012-02-08 07:45:05 51°13.637 2°56.019 10.8844 0.070573 0.402257 -1.326982
2012-02-08 07:45:10 51°13.637 2°56.02 10.888 0.070573 0.402257 -1.326982
2012-02-08 07:45:15 51°13.636 2°56.02 10.8817 0.070471 0.401651 -1.326982
2012-02-08 07:45:19 51°13.636 2°56.019 10.8805 0.069751 0.397401 -1.326982
2012-02-08 07:45:25 51°13.636 2°56.019 10.8837 0.069854 0.398007 -1.326982
2012-02-08 07:45:30 51°13.636 2°56.019 10.8858 0.070162 0.399817 -1.326982
2012-02-08 07:45:35 51°13.636 2°56.019 10.8864 0.070162 0.399817 -1.326982
2012-02-08 07:45:39 51°13.636 2°56.019 10.8814 0.070162 0.399817 -1.326982
2012-02-08 07:45:44 51°13.636 2°56.019 10.8783 0.070265 0.400424 -1.326982
2012-02-08 07:45:49 51°13.636 2°56.019 10.8814 0.070059 0.399211 -1.326982
2012-02-08 07:45:55 51°13.636 2°56.019 10.886 0.068826 0.391935 -1.326982
2012-02-08 07:45:59 51°13.636 2°56.019 10.8881 0.069031 0.393146 -1.326982
2012-02-08 07:46:04 51°13.636 2°56.019 10.8837 0.069648 0.396787 -1.326982
2012-02-08 07:46:09 51°13.636 2°56.019 10.884 0.069648 0.396787 -1.326982
2012-02-08 07:46:14 51°13.636 2°56.019 10.8841 0.070676 0.402849 -1.326982
2012-02-08 07:46:20 51°13.636 2°56.018 10.886 0.070162 0.39981 -1.326982
2012-02-08 07:46:25 51°13.636 2°56.018 10.8884 0.069545 0.396174 -1.326982
2012-02-08 07:46:29 51°13.636 2°56.019 10.8874 0.06934 0.394963 -1.326982
2012-02-08 07:46:34 51°13.636 2°56.019 10.8875 0.069648 0.396773 -1.326982
2012-02-08 07:46:39 51°13.636 2°56.019 10.8865 0.069648 0.396773 -1.326982
2012-02-08 07:46:44 51°13.636 2°56.018 10.886 0.070059 0.399196 -1.326982
2012-02-08 07:46:49 51°13.636 2°56.018 10.8862 0.070471 0.401621 -1.326982
2012-02-08 07:46:54 51°13.637 2°56.017 10.8864 0.070265 0.400409 -1.326982
2012-02-08 07:47:00 51°13.637 2°56.017 10.8857 0.069751 0.397371 -1.326982
2012-02-08 07:47:05 51°13.637 2°56.018 10.8911 0.069442 0.395554 -1.326982
2012-02-08 07:47:10 51°13.637 2°56.018 10.9209 0.069442 0.395554 -1.326982
2012-02-08 07:47:14 51°13.636 2°56.018 10.9525 0.067797 0.385861 -1.326982
2012-02-08 07:47:20 51°13.636 2°56.019 10.9817 0.065535 0.372537 -1.326982
2012-02-08 07:47:25 51°13.637 2°56.018 10.994 0.06461 0.367084 -1.326982
2012-02-08 07:47:29 51°13.637 2°56.019 10.9904 0.063993 0.363459 -1.326982
2012-02-08 07:47:34 51°13.636 2°56.019 10.9809 0.063582 0.361034 -1.326982
2012-02-08 07:47:39 51°13.637 2°56.019 10.9769 0.063582 0.361034 -1.326982
2012-02-08 07:47:44 51°13.636 2°56.019 10.9721 0.063376 0.359829 -1.326982
2012-02-08 07:47:49 51°13.636 2°56.019 10.9639 0.064713 0.367667 -1.326982
2012-02-08 07:47:54 51°13.637 2°56.018 10.976 0.065433 0.371891 -1.326982
2012-02-08 07:47:59 51°13.636 2°56.019 10.9711 0.064918 0.368874 -1.326982
2012-02-08 07:48:03 51°13.636 2°56.019 10.9894 0.064918 0.368874 -1.326982
2012-02-08 07:48:10 51°13.636 2°56.018 10.9858 0.063787 0.362239 -1.326982
2012-02-08 07:48:14 51°13.636 2°56.019 10.9702 0.062759 0.356207 -1.326982
2012-02-08 07:48:19 51°13.636 2°56.019 10.9702 0.061731 0.350174 -1.326982
2012-02-08 07:48:24 51°13.636 2°56.019 10.9693 0.060497 0.342945 -1.326982
2012-02-08 07:48:29 51°13.636 2°56.019 10.9668 0.061834 0.350756 -1.326982
2012-02-08 07:48:35 51°13.636 2°56.019 10.9534 0.061937 0.351358 -1.326982
2012-02-08 07:48:39 51°13.636 2°56.019 10.9463 0.061937 0.351358 -1.326982
2012-02-08 07:48:44 51°13.636 2°56.018 10.9398 0.060395 0.342331 -1.326982
2012-02-08 07:48:49 51°13.636 2°56.018 10.9407 0.060292 0.341724 -1.326982
2012-02-08 07:48:55 51°13.636 2°56.019 10.9435 0.060395 0.342325 -1.326982
2012-02-08 07:49:00 51°13.636 2°56.018 10.9476 0.060806 0.344729 -1.326982
2012-02-08 07:49:04 51°13.636 2°56.018 10.9442 0.060395 0.342325 -1.326982
2012-02-08 07:49:09 51°13.636 2°56.019 10.9435 0.060395 0.342325 -1.326982
2012-02-08 07:49:14 51°13.636 2°56.019 10.9409 0.060189 0.341123 -1.326982
2012-02-08 07:49:19 51°13.636 2°56.019 10.9389 0.060395 0.342318 -1.326982
2012-02-08 07:49:24 51°13.635 2°56.018 10.9555 0.062451 0.354355 -1.326982
2012-02-08 07:49:30 51°13.636 2°56.018 10.9492 0.061731 0.350142 -1.326982
2012-02-08 07:49:34 51°13.636 2°56.018 10.9807 0.060703 0.344121 -1.326982
2012-02-08 07:49:40 51°13.636 2°56.018 10.9907 0.060703 0.344121 -1.326982
2012-02-08 07:49:44 51°13.636 2°56.018 10.9846 0.060497 0.342913 -1.326982
2012-02-08 07:49:49 51°13.636 2°56.018 10.9761 0.060189 0.34111 -1.326982
2012-02-08 07:49:53 51°13.636 2°56.018 10.972 0.059264 0.335693 -1.326982
2012-02-08 07:49:59 51°13.636 2°56.018 10.9727 0.058852 0.333292 -1.326982
2012-02-08 07:50:04 51°13.636 2°56.018 10.9723 0.058852 0.333292 -1.326982
2012-02-08 07:50:10 51°13.636 2°56.019 10.9659 0.058235 0.329687 -1.326982
2012-02-08 07:50:14 51°13.636 2°56.019 10.9574 0.059058 0.334486 -1.326982
2012-02-08 07:50:20 51°13.636 2°56.019 10.9536 0.059161 0.33508 -1.326982
2012-02-08 07:50:25 51°13.636 2°56.02 10.9499 0.059366 0.336281 -1.326982
2012-02-08 07:50:30 51°13.636 2°56.019 10.9557 0.059058 0.334474 -1.326982
2012-02-08 07:50:34 51°13.636 2°56.019 10.9548 0.059058 0.33448 -1.326982
2012-02-08 07:50:40 51°13.636 2°56.019 10.9551 0.059058 0.33448 -1.326982
2012-02-08 07:50:45 51°13.636 2°56.019 10.9546 0.058749 0.332674 -1.326982
2012-02-08 07:50:50 51°13.636 2°56.019 10.9518 0.059572 0.337475 -1.326982
2012-02-08 07:50:54 51°13.636 2°56.019 10.9521 0.060086 0.340478 -1.326982
2012-02-08 07:51:00 51°13.636 2°56.019 10.9577 0.060189 0.341072 -1.326982
2012-02-08 07:51:05 51°13.636 2°56.019 10.9585 0.059572 0.337475 -1.326982
2012-02-08 07:51:10 51°13.636 2°56.019 10.9587 0.059572 0.337475 -1.326982
2012-02-08 07:51:14 51°13.636 2°56.019 10.9677 0.059264 0.335668 -1.326982
2012-02-08 07:51:20 51°13.636 2°56.018 10.9877 0.059983 0.339877 -1.326982
2012-02-08 07:51:24 51°13.636 2°56.018 11.011 0.059778 0.338676 -1.326982
2012-02-08 07:51:29 51°13.636 2°56.018 11.0065 0.060189 0.341079 -1.326982
2012-02-08 07:51:34 51°13.636 2°56.017 11.0081 0.060189 0.341079 -1.326982
2012-02-08 07:51:39 51°13.635 2°56.019 10.9958 0.05988 0.33927 -1.326982
2012-02-08 07:51:44 51°13.635 2°56.019 10.986 0.059161 0.335068 -1.326982
2012-02-08 07:51:49 51°13.635 2°56.019 10.981 0.059572 0.337463 -1.326982
2012-02-08 07:51:54 51°13.635 2°56.018 10.9776 0.060189 0.341066 -1.326982
2012-02-08 07:51:59 51°13.635 2°56.018 10.9539 0.057002 0.322446 -1.326982
2012-02-08 07:52:04 51°13.635 2°56.019 10.9418 0.056899 0.321836 -1.326982
2012-02-08 07:52:10 51°13.635 2°56.018 10.9461 0.056899 0.321836 -1.326982
2012-02-08 07:52:15 51°13.635 2°56.018 10.8991 0.056385 0.318836 -1.326982
2012-02-08 07:52:19 51°13.634 2°56.018 10.8535 0.055665 0.314636 -1.326982
2012-02-08 07:52:24 51°13.634 2°56.018 10.804 0.052786 0.297896 -1.326982
2012-02-08 07:52:30 51°13.635 2°56.016 10.6867 0.052478 0.296091 -1.326982
2012-02-08 07:52:34 51°13.635 2°56.015 10.7827 0.055254 0.312215 -1.326982
2012-02-08 07:52:39 51°13.635 2°56.013 10.7613 0.055254 0.312215 -1.326982
2012-02-08 07:52:43 51°13.636 2°56.01 10.7369 0.053095 0.299619 -1.326982
2012-02-08 07:52:49 51°13.636 2°56.006 10.8486 0.054945 0.310388 -1.326982
2012-02-08 07:52:54 51°13.637 2°56.001 10.8898 0.054431 0.307406 -1.326982
2012-02-08 07:52:59 51°13.638 2°55.996 10.9171 0.056076 0.316982 -1.326982
2012-02-08 07:53:04 51°13.639 2°55.991 10.9182 0.056899 0.321794 -1.326982
2012-02-08 07:53:09 51°13.64 2°55.985 10.911 0.056899 0.321794 -1.326982
2012-02-08 07:53:14 51°13.642 2°55.978 10.9119 0.056488 0.319399 -1.326982
2012-02-08 07:53:19 51°13.644 2°55.971 10.9473 0.055768 0.315223 -1.326982
2012-02-08 07:53:24 51°13.646 2°55.963 10.9298 0.057002 0.322423 -1.326982
2012-02-08 07:53:29 51°13.647 2°55.955 10.9354 0.058647 0.33203 -1.326982
2012-02-08 07:53:34 51°13.649 2°55.947 10.9192 0.058647 0.33203 -1.326982
2012-02-08 07:53:40 51°13.652 2°55.936 10.9718 0.057721 0.326634 -1.326982
2012-02-08 07:53:45 51°13.653 2°55.927 10.9322 0.059058 0.334449 -1.326982
2012-02-08 07:53:49 51°13.655 2°55.92 10.9534 0.054842 0.309888 -1.326982
2012-02-08 07:53:54 51°13.657 2°55.911 10.8948 0.052683 0.297316 -1.326982
2012-02-08 07:53:59 51°13.659 2°55.902 10.9785 0.057002 0.322399 -1.326982
2012-02-08 07:54:04 51°13.661 2°55.893 10.906 0.053712 0.303255 -1.326982
2012-02-08 07:54:09 51°13.663 2°55.884 10.9216 0.053712 0.303255 -1.326982
2012-02-08 07:54:15 51°13.666 2°55.874 10.9776 0.055665 0.314601 -1.326982
2012-02-08 07:54:19 51°13.668 2°55.867 10.9591 0.055357 0.312807 -1.326982
2012-02-08 07:54:25 51°13.672 2°55.855 10.974 0.056899 0.321782 -1.326982
2012-02-08 07:54:30 51°13.675 2°55.847 10.9731 0.05731 0.324195 -1.326982
2012-02-08 07:54:34 51°13.679 2°55.839 10.984 0.058441 0.3308 -1.326982
2012-02-08 07:54:40 51°13.682 2°55.829 10.9922 0.058441 0.3308 -1.326982
2012-02-08 07:54:45 51°13.685 2°55.82 10.9768 0.058749 0.332606 -1.326982
2012-02-08 07:54:50 51°13.689 2°55.811 10.9473 0.059983 0.339827 -1.326982
2012-02-08 07:54:54 51°13.693 2°55.803 10.9651 0.057721 0.326634 -1.326982
2012-02-08 07:54:59 51°13.697 2°55.796 10.9705 0.056796 0.321249 -1.326982
2012-02-08 07:55:04 51°13.702 2°55.788 10.9682 0.055871 0.31585 -1.326982
2012-02-08 07:55:10 51°13.708 2°55.776 10.9743 0.055871 0.31585 -1.326982
2012-02-08 07:55:14 51°13.713 2°55.769 10.978 0.055459 0.313434 -1.326982
2012-02-08 07:55:20 51°13.719 2°55.759 10.9591 0.056899 0.3218 -1.326982
2012-02-08 07:55:25 51°13.725 2°55.75 10.9515 0.055973 0.316402 -1.326982
2012-02-08 07:55:29 51°13.73 2°55.743 10.95 0.055151 0.311606 -1.326982
2012-02-08 07:55:34 51°13.736 2°55.734 10.9842 0.058647 0.331963 -1.326982
2012-02-08 07:55:39 51°13.742 2°55.726 10.9459 0.058647 0.331963 -1.326982
2012-02-08 07:55:44 51°13.748 2°55.717 10.9223 0.05402 0.305012 -1.326982
2012-02-08 07:55:48 51°13.753 2°55.71 10.9662 0.052478 0.296042 -1.326982
2012-02-08 07:55:54 51°13.761 2°55.7 10.9883 0.051861 0.292466 -1.326982
2012-02-08 07:55:59 51°13.767 2°55.692 10.9709 0.05073 0.285902 -1.326982
2012-02-08 07:56:04 51°13.774 2°55.684 10.9648 0.051244 0.288861 -1.326982
2012-02-08 07:56:09 51°13.78 2°55.676 10.9733 0.051244 0.288861 -1.326982
2012-02-08 07:56:15 51°13.789 2°55.667 10.9903 0.05145 0.290052 -1.326982
2012-02-08 07:56:20 51°13.796 2°55.66 10.9999 0.053197 0.300188 -1.326982
2012-02-08 07:56:24 51°13.802 2°55.655 10.9976 0.051244 0.288856 -1.326982
2012-02-08 07:56:29 51°13.809 2°55.649 11.0102 0.052066 0.293625 -1.326982
2012-02-08 07:56:34 51°13.817 2°55.645 11.0108 0.051552 0.290658 -1.326982
2012-02-08 07:56:39 51°13.824 2°55.64 11.0144 0.051552 0.290658 -1.326982
2012-02-08 07:56:44 51°13.832 2°55.635 11.0177 0.050113 0.282328 -1.326982
2012-02-08 07:56:50 51°13.842 2°55.631 11.0189 0.05001 0.281734 -1.326982
2012-02-08 07:56:54 51°13.848 2°55.629 11.0132 0.05001 0.281734 -1.326982
2012-02-08 07:56:59 51°13.856 2°55.626 10.9936 0.049393 0.278163 -1.326982
2012-02-08 07:57:04 51°13.865 2°55.623 10.993 0.049188 0.276975 -1.326982
2012-02-08 07:57:09 51°13.873 2°55.622 10.994 0.049188 0.276975 -1.326982
2012-02-08 07:57:15 51°13.883 2°55.621 11.004 0.048571 0.273402 -1.326982
2012-02-08 07:57:20 51°13.89 2°55.621 10.979 0.048262 0.271622 -1.326982
2012-02-08 07:57:25 51°13.898 2°55.621 10.9746 0.048982 0.275772 -1.326982
2012-02-08 07:57:30 51°13.906 2°55.621 10.985 0.04929 0.277553 -1.326982
2012-02-08 07:57:35 51°13.913 2°55.622 10.9819 0.047234 0.265672 -1.326982
2012-02-08 07:57:40 51°13.92 2°55.623 10.9824 0.047234 0.265672 -1.326982
2012-02-08 07:57:45 51°13.926 2°55.625 10.9699 0.048571 0.273377 -1.326982
2012-02-08 07:57:49 51°13.932 2°55.626 10.9571 0.048365 0.272185 -1.326982
2012-02-08 07:57:54 51°13.938 2°55.629 10.9621 0.048674 0.27397 -1.326982
2012-02-08 07:57:59 51°13.944 2°55.631 10.9152 0.047337 0.266255 -1.326982
2012-02-08 07:58:05 51°13.95 2°55.634 10.9066 0.047234 0.265657 -1.326982
2012-02-08 07:58:10 51°13.955 2°55.637 10.9127 0.047234 0.265657 -1.326982
2012-02-08 07:58:14 51°13.959 2°55.639 10.9915 0.047954 0.269812 -1.326982
2012-02-08 07:58:20 51°13.964 2°55.642 10.9801 0.050627 0.28527 -1.326982
2012-02-08 07:58:24 51°13.967 2°55.645 10.9766 0.05073 0.285876 -1.326982
2012-02-08 07:58:29 51°13.97 2°55.647 10.9824 0.050421 0.284096 -1.326982
2012-02-08 07:58:34 51°13.973 2°55.649 10.9347 0.048674 0.273985 -1.326982
2012-02-08 07:58:39 51°13.974 2°55.651 10.9615 0.048674 0.273985 -1.326982
2012-02-08 07:58:44 51°13.976 2°55.652 10.9859 0.048571 0.273387 -1.326982
2012-02-08 07:58:49 51°13.976 2°55.651 10.9119 0.049393 0.278142 -1.326982
2012-02-08 07:58:54 51°13.976 2°55.649 10.5842 0.041991 0.235496 -1.326982
2012-02-08 07:58:58 51°13.976 2°55.646 10.4644 0.037775 0.211292 -1.326982
2012-02-08 07:59:04 51°13.975 2°55.641 10.22 0.033457 0.186654 -1.326982
2012-02-08 07:59:09 51°13.975 2°55.635 10.2814 0.033457 0.186654 -1.326982
2012-02-08 07:59:14 51°13.975 2°55.627 10.3016 0.033457 0.186542 -1.326982
2012-02-08 07:59:19 51°13.976 2°55.62 10.4376 0.040037 0.224014 -1.326982
2012-02-08 07:59:24 51°13.978 2°55.612 10.1591 0.037467 0.209567 -1.326982
2012-02-08 07:59:30 51°13.981 2°55.601 10.3888 0.039729 0.222439 -1.326982
2012-02-08 07:59:35 51°13.985 2°55.593 10.5186 0.044664 0.250727 -1.326982
2012-02-08 07:59:39 51°13.988 2°55.585 10.5793 0.044664 0.250727 -1.326982
2012-02-08 07:59:44 51°13.993 2°55.576 10.6039 0.052786 0.297665 -1.326982
2012-02-08 07:59:50 51°14 2°55.565 10.6129 0.054328 0.306656 -1.326982
2012-02-08 07:59:55 51°14.006 2°55.556 10.6178 0.057516 0.325273 -1.326982
2012-02-08 07:59:59 51°14.012 2°55.548 10.6265 0.054637 0.308601 -1.326982
2012-02-08 08:00:04 51°14.02 2°55.539 10.5889 0.051964 0.293149 -1.326982
2012-02-08 08:00:09 51°14.028 2°55.529 10.5843 0.051964 0.293149 -1.326982
2012-02-08 08:00:15 51°14.038 2°55.518 10.5732 0.056282 0.318344 -1.326982
2012-02-08 08:00:19 51°14.045 2°55.51 10.575 0.052889 0.298658 -1.326982
2012-02-08 08:00:24 51°14.054 2°55.5 10.5856 0.047029 0.264695 -1.326982
2012-02-08 08:00:29 51°14.063 2°55.491 10.539 0.047645 0.268205 -1.326982
2012-02-08 08:00:34 51°14.073 2°55.481 10.5317 0.047645 0.268205 -1.326982
2012-02-08 08:00:40 51°14.085 2°55.468 10.5186 0.045178 0.253949 -1.326982
2012-02-08 08:00:43 51°14.091 2°55.462 10.5 0.043636 0.245031 -1.326982
2012-02-08 08:00:50 51°14.105 2°55.447 10.5633 0.046515 0.261573 -1.326982
2012-02-08 08:00:55 51°14.115 2°55.436 10.5104 0.046103 0.2592 -1.326982
2012-02-08 08:01:00 51°14.126 2°55.425 10.4652 0.041477 0.232578 -1.326982
2012-02-08 08:01:04 51°14.134 2°55.417 10.42 0.042402 0.237853 -1.326982
2012-02-08 08:01:10 51°14.147 2°55.404 10.5595 0.042402 0.237853 -1.326982
2012-02-08 08:01:14 51°14.155 2°55.396 10.5338 0.043533 0.244347 -1.326982
2012-02-08 08:01:19 51°14.166 2°55.386 10.543 0.041168 0.230775 -1.326982
2012-02-08 08:01:24 51°14.177 2°55.376 10.5369 0.041991 0.235458 -1.326982
2012-02-08 08:01:29 51°14.188 2°55.365 10.5487 0.042916 0.240769 -1.326982
2012-02-08 08:01:34 51°14.199 2°55.354 10.5477 0.040243 0.225452 -1.326982
2012-02-08 08:01:39 51°14.209 2°55.343 10.4748 0.040243 0.225452 -1.326982
2012-02-08 08:01:44 51°14.22 2°55.332 10.4283 0.039318 0.22014 -1.326982
2012-02-08 08:01:49 51°14.231 2°55.322 10.4902 0.04343 0.243664 -1.326982
2012-02-08 08:01:54 51°14.242 2°55.312 10.5339 0.042608 0.238979 -1.326982
2012-02-08 08:01:59 51°14.253 2°55.301 10.523 0.040346 0.226047 -1.326982
2012-02-08 08:02:04 51°14.263 2°55.291 10.546 0.039832 0.223115 -1.326982
2012-02-08 08:02:09 51°14.274 2°55.28 10.5028 0.039832 0.223115 -1.326982
2012-02-08 08:02:14 51°14.285 2°55.27 10.4674 0.040757 0.228419 -1.326982
2012-02-08 08:02:20 51°14.299 2°55.257 10.4986 0.043739 0.245536 -1.326982
2012-02-08 08:02:25 51°14.31 2°55.247 10.5682 0.04343 0.24381 -1.326982
2012-02-08 08:02:29 51°14.319 2°55.238 10.5631 0.041579 0.233146 -1.326982
2012-02-08 08:02:34 51°14.33 2°55.227 10.5072 0.040449 0.226647 -1.326982
2012-02-08 08:02:40 51°14.344 2°55.213 10.5334 0.040449 0.226647 -1.326982
2012-02-08 08:02:45 51°14.355 2°55.201 10.529 0.041065 0.230179 -1.326982
2012-02-08 08:02:49 51°14.364 2°55.192 10.4478 0.041579 0.233133 -1.326982
2012-02-08 08:02:54 51°14.376 2°55.181 10.5078 0.044253 0.248492 -1.326982
2012-02-08 08:02:59 51°14.388 2°55.169 10.5531 0.042196 0.236653 -1.326982
2012-02-08 08:03:04 51°14.399 2°55.157 10.3808 0.045692 0.256682 -1.326982
2012-02-08 08:03:09 51°14.411 2°55.145 10.4514 0.045692 0.256682 -1.326982
2012-02-08 08:03:14 51°14.423 2°55.132 10.3809 0.040757 0.228324 -1.326982
2012-02-08 08:03:19 51°14.434 2°55.119 10.4057 0.037981 0.212452 -1.326982
2012-02-08 08:03:24 51°14.445 2°55.106 10.4637 0.042813 0.240582 -1.326982
2012-02-08 08:03:30 51°14.46 2°55.09 10.5147 0.041991 0.235484 -1.326982
2012-02-08 08:03:35 51°14.471 2°55.077 10.5206 0.04271 0.239594 -1.326982
2012-02-08 08:03:39 51°14.481 2°55.066 10.5188 0.04271 0.239594 -1.326982
2012-02-08 08:03:45 51°14.494 2°55.048 10.4752 0.043533 0.244249 -1.326982
2012-02-08 08:03:50 51°14.505 2°55.033 10.5146 0.041888 0.234771 -1.326982
2012-02-08 08:03:54 51°14.514 2°55.02 10.3361 0.045384 0.254778 -1.326982
2012-02-08 08:03:58 51°14.522 2°55.006 10.4041 0.043122 0.241737 -1.326982
2012-02-08 08:04:03 51°14.532 2°54.988 10.4111 0.044047 0.246974 -1.326982
2012-02-08 08:04:10 51°14.546 2°54.963 10.2401 0.044047 0.246974 -1.326982
2012-02-08 08:04:14 51°14.555 2°54.948 10.303 0.038495 0.215426 -1.326982
2012-02-08 08:04:19 51°14.565 2°54.93 10.4049 0.05145 0.29002 -1.326982
2012-02-08 08:04:24 51°14.576 2°54.913 10.3913 0.057721 0.327216 -1.326982
2012-02-08 08:04:29 51°14.586 2°54.894 10.4847 0.063171 0.359158 -1.326982
2012-02-08 08:04:34 51°14.596 2°54.875 10.4539 0.046617 0.262917 -1.326982
2012-02-08 08:04:39 51°14.605 2°54.854 10.4566 0.046617 0.262917 -1.326982
2012-02-08 08:04:44 51°14.613 2°54.832 10.4831 0.041991 0.235878 -1.326982
2012-02-08 08:04:49 51°14.62 2°54.809 10.4615 0.04271 0.23993 -1.326982
2012-02-08 08:04:54 51°14.627 2°54.785 10.4012 0.042402 0.238756 -1.326982
2012-02-08 08:05:00 51°14.632 2°54.756 10.4394 0.04487 0.253352 -1.326982
2012-02-08 08:05:04 51°14.635 2°54.737 10.5236 0.039832 0.223987 -1.326982
2012-02-08 08:05:09 51°14.637 2°54.711 10.396 0.039832 0.223987 -1.326982
2012-02-08 08:05:14 51°14.638 2°54.685 10.5055 0.039523 0.222409 -1.326982
2012-02-08 08:05:19 51°14.638 2°54.659 10.5027 0.034691 0.194826 -1.326982
2012-02-08 08:05:24 51°14.637 2°54.633 10.3737 0.035822 0.201304 -1.326982
2012-02-08 08:05:28 51°14.634 2°54.612 10.469 0.03829 0.215539 -1.326982
2012-02-08 08:05:33 51°14.63 2°54.587 10.402 0.036028 0.202538 -1.326982
2012-02-08 08:05:39 51°14.623 2°54.556 10.3009 0.036028 0.202538 -1.326982
2012-02-08 08:05:43 51°14.619 2°54.536 10.3741 0.032841 0.184261 -1.326982
2012-02-08 08:05:49 51°14.609 2°54.507 10.3542 0.031298 0.175503 -1.326982
2012-02-08 08:05:53 51°14.602 2°54.488 10.3141 0.036747 0.206664 -1.326982
2012-02-08 08:05:58 51°14.593 2°54.464 10.2466 0.044355 0.250446 -1.326982
2012-02-08 08:06:03 51°14.586 2°54.44 10.3011 0.036439 0.204888 -1.326982
2012-02-08 08:06:09 51°14.574 2°54.411 10.3311 0.036439 0.204888 -1.326982
2012-02-08 08:06:13 51°14.566 2°54.392 10.3443 0.044253 0.249797 -1.326982
2012-02-08 08:06:18 51°14.557 2°54.368 10.1367 0.037056 0.208421 -1.326982
2012-02-08 08:06:22 51°14.549 2°54.349 10.2873 0.048057 0.271902 -1.326982
2012-02-08 08:06:29 51°14.536 2°54.315 10.2585 0.048982 0.277316 -1.326982
2012-02-08 08:06:34 51°14.527 2°54.291 10.4126 0.057824 0.329132 -1.326982
2012-02-08 08:06:38 51°14.52 2°54.271 10.1742 0.057824 0.329132 -1.326982
2012-02-08 08:06:43 51°14.51 2°54.247 10.4119 0.038392 0.216199 -1.326982
2012-02-08 08:06:48 51°14.499 2°54.224 10.1232 0.052889 0.300121 -1.326982
2012-02-08 08:06:53 51°14.49 2°54.199 10.2836 0.047748 0.270293 -1.326982
2012-02-08 08:06:58 51°14.48 2°54.175 10.223 0.056282 0.319962 -1.326982
2012-02-08 08:07:02 51°14.472 2°54.154 10.1849 0.045795 0.258836 -1.326982
2012-02-08 08:07:07 51°14.462 2°54.131 10.3654 0.045795 0.258836 -1.326982
2012-02-08 08:07:12 51°14.452 2°54.106 10.1801 0.041991 0.236845 -1.326982
2012-02-08 08:07:17 51°14.442 2°54.081 10.2282 0.055357 0.31446 -1.326982
2012-02-08 08:07:22 51°14.432 2°54.056 10.3291 0.046926 0.265402 -1.326982
2012-02-08 08:07:26 51°14.424 2°54.035 10.1559 0.074481 0.427343 -1.326982
2012-02-08 08:07:31 51°14.414 2°54.009 10.2874 0.045589 0.257665 -1.326982
2012-02-08 08:07:37 51°14.403 2°53.979 10.2008 0.045589 0.257665 -1.326982
2012-02-08 08:07:41 51°14.395 2°53.958 10.2539 0.078285 0.449825 -1.326982
2012-02-08 08:07:46 51°14.385 2°53.933 10.2295 0.052067 0.29527 -1.326982
2012-02-08 08:07:50 51°14.377 2°53.912 10.3362 0.064713 0.36943 -1.326982
2012-02-08 08:07:56 51°14.366 2°53.881 10.2967 0.036953 0.207867 -1.326982
2012-02-08 08:08:01 51°14.356 2°53.856 10.3416 0.04672 0.264118 -1.326982
2012-02-08 08:08:06 51°14.345 2°53.831 10.3042 0.04672 0.264118 -1.326982
2012-02-08 08:08:10 51°14.337 2°53.811 10.1799 0.038701 0.217862 -1.326982
2012-02-08 08:08:15 51°14.326 2°53.786 10.3907 0.051758 0.293385 -1.326982
2012-02-08 08:08:22 51°14.311 2°53.751 10.1827 0.05145 0.291616 -1.326982
2012-02-08 08:08:27 51°14.301 2°53.725 10.339 0.05988 0.340968 -1.326982
2012-02-08 08:08:31 51°14.292 2°53.706 10.3362 0.046206 0.261112 -1.326982
2012-02-08 08:08:36 51°14.281 2°53.681 10.2001 0.046206 0.261112 -1.326982
2012-02-08 08:08:41 51°14.27 2°53.656 10.192 0.041065 0.231364 -1.326982
2012-02-08 08:08:46 51°14.26 2°53.632 10.2721 0.037981 0.213627 -1.326982
2012-02-08 08:08:51 51°14.248 2°53.608 10.1922 0.148824 0.878725 -1.326982
2012-02-08 08:08:55 51°14.24 2°53.587 10.2927 0.056488 0.321196 -1.326982
2012-02-08 08:09:01 51°14.227 2°53.559 10.2595 0.154377 0.91359 -1.326982
2012-02-08 08:09:06 51°14.217 2°53.533 10.3086 0.154377 0.91359 -1.326982
2012-02-08 08:09:11 51°14.205 2°53.509 10.2029 0.050833 0.288195 -1.326982
2012-02-08 08:09:16 51°14.194 2°53.485 10.2508 0.072938 0.418269 -1.326982
2012-02-08 08:09:21 51°14.184 2°53.46 10.243 0.044253 0.249985 -1.326982
2012-02-08 08:09:26 51°14.172 2°53.436 10.2473 0.129594 0.760826 -1.326982
2012-02-08 08:09:31 51°14.163 2°53.409 10.2703 0.051861 0.294137 -1.326982
2012-02-08 08:09:36 51°14.151 2°53.385 10.2618 0.051861 0.294137 -1.326982
2012-02-08 08:09:40 51°14.144 2°53.364 10.2343 0.063171 0.360436 -1.326982
2012-02-08 08:09:46 51°14.131 2°53.336 10.2506 0.035 0.196773 -1.326982
2012-02-08 08:09:50 51°14.122 2°53.316 10.2596 0.041374 0.233309 -1.326982
2012-02-08 08:09:55 51°14.111 2°53.291 10.2438 0.037364 0.210278 -1.326982
2012-02-08 08:10:01 51°14.098 2°53.261 10.2531 0.035205 0.197894 -1.326982
2012-02-08 08:10:06 51°14.088 2°53.237 10.2518 0.035205 0.197894 -1.326982
2012-02-08 08:10:11 51°14.076 2°53.213 10.2747 0.074378 0.426716 -1.326982
2012-02-08 08:10:16 51°14.066 2°53.188 10.2219 0.047337 0.267916 -1.326982
2012-02-08 08:10:21 51°14.055 2°53.163 10.2832 0.105019 0.61082 -1.326982
2012-02-08 08:10:26 51°14.046 2°53.138 10.2281 0.049496 0.280412 -1.326982
2012-02-08 08:10:31 51°14.035 2°53.113 10.2711 0.071807 0.411525 -1.326982
2012-02-08 08:10:36 51°14.026 2°53.086 10.2571 0.071807 0.411525 -1.326982
2012-02-08 08:10:41 51°14.016 2°53.062 10.2876 0.044767 0.252976 -1.326982
2012-02-08 08:10:45 51°14.009 2°53.04 10.2518 0.046926 0.265447 -1.326982
2012-02-08 08:10:51 51°13.997 2°53.009 10.2984 0.094531 0.547436 -1.326982
2012-02-08 08:10:56 51°13.989 2°52.983 10.2321 0.065535 0.374401 -1.326982
2012-02-08 08:11:01 51°13.98 2°52.956 10.2729 0.047954 0.271511 -1.326982
2012-02-08 08:11:05 51°13.973 2°52.935 10.2574 0.047954 0.271511 -1.326982
2012-02-08 08:11:10 51°13.964 2°52.909 10.2395 0.066666 0.381181 -1.326982
2012-02-08 08:11:16 51°13.95 2°52.879 10.2469 0.112525 0.656514 -1.326982
2012-02-08 08:11:21 51°13.943 2°52.852 10.2667 0.049085 0.278073 -1.326982
2012-02-08 08:11:25 51°13.933 2°52.833 10.2699 0.102448 0.59534 -1.326982
2012-02-08 08:11:31 51°13.923 2°52.8 10.2699 0.041785 0.235738 -1.326982
2012-02-08 08:11:36 51°13.913 2°52.776 10.2627 0.041785 0.235738 -1.326982
2012-02-08 08:11:41 51°13.903 2°52.75 10.2603 0.038084 0.214415 -1.326982
2012-02-08 08:11:45 51°13.894 2°52.73 10.2675 0.050216 0.284499 -1.326982
2012-02-08 08:11:51 51°13.883 2°52.699 10.2661 0.041168 0.232078 -1.326982
2012-02-08 08:11:56 51°13.872 2°52.675 10.2676 0.043122 0.243322 -1.326982
2012-02-08 08:12:01 51°13.862 2°52.649 10.2593 0.03757 0.211445 -1.326982
2012-02-08 08:12:05 51°13.853 2°52.629 10.2689 0.03757 0.211445 -1.326982
2012-02-08 08:12:11 51°13.841 2°52.6 10.2724 0.039112 0.220294 -1.326982
2012-02-08 08:12:16 51°13.83 2°52.575 10.2674 0.043944 0.248179 -1.326982
2012-02-08 08:12:21 51°13.82 2°52.549 10.2618 0.03942 0.222159 -1.326982
2012-02-08 08:12:25 51°13.811 2°52.529 10.2565 0.040037 0.225635 -1.326982
2012-02-08 08:12:30 51°13.801 2°52.504 10.2825 0.041271 0.232751 -1.326982
2012-02-08 08:12:36 51°13.788 2°52.475 10.2775 0.041271 0.232751 -1.326982
2012-02-08 08:12:41 51°13.778 2°52.449 10.2602 0.057207 0.325388 -1.326982
2012-02-08 08:12:45 51°13.77 2°52.429 10.2796 0.047029 0.266067 -1.326982
2012-02-08 08:12:50 51°13.76 2°52.404 10.2689 0.046617 0.263659 -1.326982
2012-02-08 08:12:55 51°13.75 2°52.378 10.2678 0.048365 0.273814 -1.326982
2012-02-08 08:13:01 51°13.739 2°52.347 10.2802 0.049805 0.282159 -1.326982
2012-02-08 08:13:05 51°13.732 2°52.326 10.2779 0.049805 0.282159 -1.326982
2012-02-08 08:13:11 51°13.722 2°52.294 10.2808 0.052272 0.296562 -1.326982
2012-02-08 08:13:16 51°13.713 2°52.268 10.2843 0.049599 0.280974 -1.326982
2012-02-08 08:13:21 51°13.704 2°52.241 10.2828 0.046309 0.261861 -1.326982
2012-02-08 08:13:25 51°13.698 2°52.22 10.2752 0.041477 0.233888 -1.326982
2012-02-08 08:13:31 51°13.687 2°52.187 10.2876 0.054328 0.308474 -1.326982
2012-02-08 08:13:36 51°13.679 2°52.16 10.2834 0.054328 0.308474 -1.326982
2012-02-08 08:13:41 51°13.67 2°52.134 10.2845 0.04086 0.230328 -1.326982
2012-02-08 08:13:45 51°13.663 2°52.112 10.2892 0.063582 0.362757 -1.326982
2012-02-08 08:13:51 51°13.652 2°52.08 10.2834 0.039318 0.221443 -1.326982
2012-02-08 08:13:56 51°13.642 2°52.055 10.29 0.061628 0.351232 -1.326982
2012-02-08 08:14:01 51°13.633 2°52.029 10.2874 0.039935 0.225048 -1.326982
2012-02-08 08:14:05 51°13.625 2°52.008 10.2719 0.039935 0.225048 -1.326982
2012-02-08 08:14:11 51°13.614 2°51.976 10.2912 0.057002 0.32414 -1.326982
2012-02-08 08:14:16 51°13.604 2°51.951 10.2845 0.047029 0.265979 -1.326982
2012-02-08 08:14:21 51°13.596 2°51.924 10.2989 0.068517 0.391928 -1.326982
2012-02-08 08:14:25 51°13.588 2°51.903 10.2719 0.062554 0.356783 -1.326982
2012-02-08 08:14:31 51°13.575 2°51.872 10.2905 0.045589 0.257708 -1.326982
2012-02-08 08:14:36 51°13.565 2°51.848 10.2783 0.045589 0.257708 -1.326982
2012-02-08 08:14:41 51°13.554 2°51.823 10.2844 0.078593 0.451774 -1.326982
2012-02-08 08:14:45 51°13.546 2°51.802 10.2876 0.051141 0.289954 -1.326982
2012-02-08 08:14:51 51°13.532 2°51.774 10.2886 0.051347 0.29113 -1.326982
2012-02-08 08:14:56 51°13.522 2°51.749 10.2846 0.055562 0.315768 -1.326982
2012-02-08 08:15:01 51°13.511 2°51.724 10.2827 0.048057 0.272033 -1.326982
2012-02-08 08:15:05 51°13.503 2°51.704 10.288 0.048057 0.272033 -1.326982
2012-02-08 08:15:10 51°13.491 2°51.68 10.2896 0.071499 0.409687 -1.326982
2012-02-08 08:15:16 51°13.48 2°51.649 10.2872 0.04816 0.272625 -1.326982
2012-02-08 08:15:21 51°13.468 2°51.625 10.2956 0.054945 0.312137 -1.326982
2012-02-08 08:15:26 51°13.458 2°51.6 10.2895 0.048674 0.275585 -1.326982
2012-02-08 08:15:31 51°13.446 2°51.576 10.2837 0.079519 0.457352 -1.326982
2012-02-08 08:15:36 51°13.437 2°51.55 10.2915 0.079519 0.457352 -1.326982
2012-02-08 08:15:41 51°13.425 2°51.526 10.2915 0.070985 0.406601 -1.326982
2012-02-08 08:15:45 51°13.417 2°51.504 10.2942 0.053917 0.306146 -1.326982
2012-02-08 08:15:51 51°13.404 2°51.475 10.2917 0.059983 0.341642 -1.326982
2012-02-08 08:15:56 51°13.395 2°51.449 10.2996 0.046515 0.263024 -1.326982
2012-02-08 08:16:01 51°13.384 2°51.423 10.2877 0.061937 0.353132 -1.326982
2012-02-08 08:16:05 51°13.377 2°51.402 10.2968 0.061937 0.353132 -1.326982
2012-02-08 08:16:11 51°13.365 2°51.371 10.2977 0.066358 0.37918 -1.326982
2012-02-08 08:16:16 51°13.355 2°51.346 10.3009 0.043019 0.242787 -1.326982
2012-02-08 08:16:21 51°13.346 2°51.319 10.2933 0.060806 0.346442 -1.326982
2012-02-08 08:16:25 51°13.338 2°51.298 10.3019 0.044767 0.252883 -1.326982
2012-02-08 08:16:30 51°13.328 2°51.272 10.2943 0.037159 0.209066 -1.326982
2012-02-08 08:16:36 51°13.316 2°51.242 10.2992 0.037159 0.209066 -1.326982
2012-02-08 08:16:41 51°13.305 2°51.216 10.2999 0.041271 0.232649 -1.326982
2012-02-08 08:16:45 51°13.297 2°51.195 10.3014 0.035822 0.20137 -1.326982
2012-02-08 08:16:51 51°13.283 2°51.166 10.3002 0.042608 0.240335 -1.326982
2012-02-08 08:16:56 51°13.272 2°51.14 10.305 0.041065 0.231461 -1.326982
2012-02-08 08:17:01 51°13.261 2°51.115 10.3024 0.036336 0.204315 -1.326982
2012-02-08 08:17:05 51°13.252 2°51.094 10.2935 0.036336 0.204315 -1.326982
2012-02-08 08:17:11 51°13.238 2°51.065 10.3101 0.034794 0.1955 -1.326982
2012-02-08 08:17:16 51°13.226 2°51.039 10.314 0.103168 0.599265 -1.326982
2012-02-08 08:17:21 51°13.217 2°51.012 10.2915 0.048262 0.273156 -1.326982
2012-02-08 08:17:25 51°13.208 2°50.992 10.3173 0.091652 0.529934 -1.326982
2012-02-08 08:17:30 51°13.196 2°50.967 10.3041 0.065433 0.373738 -1.326982
2012-02-08 08:17:36 51°13.183 2°50.935 10.3024 0.065433 0.373738 -1.326982
2012-02-08 08:17:41 51°13.171 2°50.91 10.3116 0.048776 0.276142 -1.326982
2012-02-08 08:17:46 51°13.16 2°50.884 10.2817 0.088773 0.512689 -1.326982
2012-02-08 08:17:51 51°13.15 2°50.858 10.3191 0.041991 0.236893 -1.326982
2012-02-08 08:17:56 51°13.137 2°50.834 10.3206 0.093708 0.542347 -1.326982
2012-02-08 08:18:01 51°13.127 2°50.806 10.3191 0.043739 0.24696 -1.326982
2012-02-08 08:18:05 51°13.118 2°50.787 10.3193 0.043739 0.24696 -1.326982
2012-02-08 08:18:11 51°13.105 2°50.755 10.3128 0.056899 0.323502 -1.326982
2012-02-08 08:18:16 51°13.095 2°50.727 10.3227 0.064199 0.366399 -1.326982
2012-02-08 08:18:21 51°13.085 2°50.701 10.313 0.039112 0.220286 -1.326982
2012-02-08 08:18:25 51°13.076 2°50.68 10.3207 0.088258 0.509508 -1.326982
2012-02-08 08:18:31 51°13.065 2°50.647 10.3113 0.058338 0.331906 -1.326982
2012-02-08 08:18:36 51°13.053 2°50.621 10.3076 0.058338 0.331906 -1.326982
2012-02-08 08:18:41 51°13.045 2°50.592 10.3239 0.090315 0.521921 -1.326982
2012-02-08 08:18:45 51°13.036 2°50.572 10.3302 0.083426 0.480555 -1.326982
2012-02-08 08:18:50 51°13.027 2°50.544 10.2993 0.049805 0.282054 -1.326982
2012-02-08 08:18:56 51°13.013 2°50.513 10.3345 0.090212 0.521145 -1.326982
2012-02-08 08:19:01 51°13.004 2°50.486 10.3206 0.04487 0.25344 -1.326982
2012-02-08 08:19:05 51°12.996 2°50.465 10.3339 0.04487 0.25344 -1.326982
2012-02-08 08:19:11 51°12.983 2°50.433 10.3 0.074995 0.430278 -1.326982
2012-02-08 08:19:16 51°12.972 2°50.409 10.3176 0.039009 0.21968 -1.326982
2012-02-08 08:19:21 51°12.961 2°50.383 10.3277 0.051655 0.292835 -1.326982
2012-02-08 08:19:25 51°12.953 2°50.363 10.3192 0.039626 0.223267 -1.326982
2012-02-08 08:19:31 51°12.939 2°50.332 10.3251 0.065021 0.371263 -1.326982
2012-02-08 08:19:36 51°12.929 2°50.306 10.3412 0.065021 0.371263 -1.326982
2012-02-08 08:19:41 51°12.918 2°50.28 10.3393 0.037878 0.213208 -1.326982
2012-02-08 08:19:45 51°12.909 2°50.26 10.3345 0.042196 0.238021 -1.326982
2012-02-08 08:19:50 51°12.898 2°50.234 10.3264 0.042402 0.239202 -1.326982
2012-02-08 08:19:56 51°12.885 2°50.203 10.3269 0.05875 0.334355 -1.326982
2012-02-08 08:20:01 51°12.875 2°50.176 10.3297 0.044355 0.250529 -1.326982
2012-02-08 08:20:05 51°12.868 2°50.155 10.3358 0.044355 0.250529 -1.326982
2012-02-08 08:20:11 51°12.855 2°50.123 10.3285 0.057207 0.325297 -1.326982
2012-02-08 08:20:16 51°12.846 2°50.095 10.336 0.058852 0.334952 -1.326982
2012-02-08 08:20:21 51°12.834 2°50.07 10.3283 0.043841 0.247485 -1.326982
2012-02-08 08:20:25 51°12.826 2°50.05 10.3341 0.039729 0.223748 -1.326982
2012-02-08 08:20:31 51°12.813 2°50.019 10.3299 0.050524 0.286198 -1.326982
2012-02-08 08:20:36 51°12.802 2°49.993 10.3042 0.050524 0.286198 -1.326982
2012-02-08 08:20:41 51°12.791 2°49.968 10.3548 0.040757 0.229699 -1.326982
2012-02-08 08:20:45 51°12.781 2°49.948 10.3286 0.107384 0.624939 -1.326982
2012-02-08 08:20:51 51°12.769 2°49.916 10.3557 0.045589 0.257598 -1.326982
2012-02-08 08:20:56 51°12.758 2°49.891 10.3311 0.043327 0.244509 -1.326982
2012-02-08 08:21:01 51°12.747 2°49.865 10.3385 0.093605 0.541492 -1.326982
2012-02-08 08:21:05 51°12.738 2°49.845 10.3185 0.093605 0.541492 -1.326982
2012-02-08 08:21:10 51°12.728 2°49.818 10.3496 0.049805 0.282054 -1.326982
2012-02-08 08:21:16 51°12.716 2°49.786 10.3502 0.057927 0.329428 -1.326982
2012-02-08 08:21:21 51°12.704 2°49.76 10.3377 0.088156 0.508814 -1.326982
2012-02-08 08:21:25 51°12.697 2°49.738 10.319 0.045692 0.258241 -1.326982
2012-02-08 08:21:30 51°12.686 2°49.712 10.3693 0.103682 0.602503 -1.326982
2012-02-08 08:21:35 51°12.675 2°49.686 10.3037 0.103682 0.602503 -1.326982
2012-02-08 08:21:41 51°12.663 2°49.655 10.3453 0.046617 0.263571 -1.326982
2012-02-08 08:21:45 51°12.654 2°49.634 10.326 0.100392 0.582433 -1.326982
2012-02-08 08:21:51 51°12.643 2°49.602 10.3741 0.046 0.259979 -1.326982
2012-02-08 08:21:56 51°12.632 2°49.576 10.3383 0.063068 0.359642 -1.326982
2012-02-08 08:22:01 51°12.622 2°49.55 10.3486 0.041785 0.235578 -1.326982
2012-02-08 08:22:05 51°12.613 2°49.53 10.338 0.041785 0.235578 -1.326982
2012-02-08 08:22:11 51°12.6 2°49.498 10.3649 0.053506 0.303569 -1.326982
2012-02-08 08:22:16 51°12.589 2°49.473 10.3182 0.105738 0.614857 -1.326982
2012-02-08 08:22:21 51°12.58 2°49.446 10.3451 0.043944 0.248079 -1.326982
2012-02-08 08:22:25 51°12.57 2°49.426 10.3547 0.065021 0.371145 -1.326982
2012-02-08 08:22:31 51°12.559 2°49.394 10.3448 0.044047 0.248627 -1.326982
2012-02-08 08:22:36 51°12.549 2°49.368 10.3626 0.044047 0.248627 -1.326982
2012-02-08 08:22:41 51°12.537 2°49.343 10.381 0.045281 0.255753 -1.326982
2012-02-08 08:22:45 51°12.53 2°49.321 10.3183 0.109337 0.63663 -1.326982
2012-02-08 08:22:51 51°12.518 2°49.29 10.3643 0.092474 0.534709 -1.326982
2012-02-08 08:22:56 51°12.509 2°49.263 10.3299 0.064404 0.367577 -1.326982
2012-02-08 08:23:01 51°12.498 2°49.238 10.3641 0.10615 0.617409 -1.326982
2012-02-08 08:23:05 51°12.492 2°49.216 10.369 0.10615 0.617409 -1.326982
2012-02-08 08:23:10 51°12.483 2°49.188 10.3706 0.055562 0.31565 -1.326982
2012-02-08 08:23:16 51°12.472 2°49.158 10.3789 0.045692 0.258208 -1.326982
2012-02-08 08:23:21 51°12.464 2°49.131 10.3405 0.052478 0.297612 -1.326982
2012-02-08 08:23:25 51°12.456 2°49.109 10.3327 0.076331 0.438161 -1.326982
2012-02-08 08:23:31 51°12.447 2°49.077 10.3816 0.07736 0.444238 -1.326982
2012-02-08 08:23:36 51°12.436 2°49.051 10.3376 0.07736 0.444238 -1.326982
2012-02-08 08:23:41 51°12.43 2°49.024 10.385 0.062348 0.355366 -1.326982
2012-02-08 08:23:45 51°12.421 2°49.005 10.3534 0.121368 0.709898 -1.326982
2012-02-08 08:23:51 51°12.412 2°48.972 10.3676 0.045692 0.258179 -1.326982
2012-02-08 08:23:56 51°12.401 2°48.947 10.3765 0.106458 0.619197 -1.326982
2012-02-08 08:24:01 51°12.394 2°48.92 10.3803 0.045589 0.257598 -1.326982
2012-02-08 08:24:05 51°12.386 2°48.9 10.357 0.045589 0.257598 -1.326982
2012-02-08 08:24:10 51°12.377 2°48.873 10.3572 0.068209 0.389979 -1.326982
2012-02-08 08:24:16 51°12.365 2°48.842 10.368 0.050216 0.284435 -1.326982
2012-02-08 08:24:21 51°12.356 2°48.815 10.3879 0.045281 0.255833 -1.326982
2012-02-08 08:24:26 51°12.346 2°48.788 10.3476 0.048879 0.276698 -1.326982
2012-02-08 08:24:31 51°12.337 2°48.763 10.3806 0.078285 0.449842 -1.326982
2012-02-08 08:24:36 51°12.328 2°48.735 10.3553 0.078285 0.449842 -1.326982
2012-02-08 08:24:41 51°12.319 2°48.708 10.4092 0.042813 0.241565 -1.326982
2012-02-08 08:24:45 51°12.311 2°48.687 10.3377 0.112525 0.656014 -1.326982
2012-02-08 08:24:51 51°12.301 2°48.654 10.3682 0.046103 0.260536 -1.326982
2012-02-08 08:24:56 51°12.29 2°48.629 10.3764 0.0606 0.345156 -1.326982
2012-02-08 08:25:01 51°12.281 2°48.601 10.3875 0.054637 0.310207 -1.326982
2012-02-08 08:25:05 51°12.273 2°48.58 10.3813 0.054637 0.310207 -1.326982
2012-02-08 08:25:11 51°12.261 2°48.548 10.3735 0.040243 0.226743 -1.326982
2012-02-08 08:25:16 51°12.252 2°48.521 10.3659 0.05474 0.310773 -1.326982
2012-02-08 08:25:21 51°12.243 2°48.493 10.388 0.042608 0.24034 -1.326982
2012-02-08 08:25:25 51°12.236 2°48.471 10.3798 0.041065 0.231444 -1.326982
2012-02-08 08:25:30 51°12.226 2°48.445 10.3809 0.041065 0.231444 -1.326982
2012-02-08 08:25:36 51°12.215 2°48.412 10.384 0.048571 0.27482 -1.326982
2012-02-08 08:25:41 51°12.206 2°48.386 10.3925 0.039729 0.223731 -1.326982
2012-02-08 08:25:45 51°12.199 2°48.364 10.402 0.039729 0.223764 -1.326982
2012-02-08 08:25:51 51°12.188 2°48.331 10.382 0.051655 0.292792 -1.326982
2012-02-08 08:25:56 51°12.178 2°48.305 10.364 0.05073 0.287373 -1.326982
2012-02-08 08:26:01 51°12.169 2°48.279 10.416 0.073966 0.423977 -1.326982
2012-02-08 08:26:05 51°12.16 2°48.258 10.3303 0.073966 0.423977 -1.326982
2012-02-08 08:26:11 51°12.149 2°48.227 10.4023 0.046 0.259893 -1.326982
2012-02-08 08:26:16 51°12.139 2°48.2 10.4055 0.0752 0.431346 -1.326982
2012-02-08 08:26:21 51°12.129 2°48.174 10.3832 0.045692 0.258141 -1.326982
2012-02-08 08:26:25 51°12.121 2°48.153 10.3896 0.043019 0.24268 -1.326982
2012-02-08 08:26:30 51°12.11 2°48.128 10.3809 0.075714 0.434369 -1.326982
2012-02-08 08:26:36 51°12.098 2°48.097 10.3686 0.075714 0.434369 -1.326982
2012-02-08 08:26:41 51°12.087 2°48.072 10.3822 0.042196 0.23793 -1.326982
2012-02-08 08:26:45 51°12.079 2°48.051 10.3985 0.078593 0.451544 -1.326982
2012-02-08 08:26:51 51°12.065 2°48.02 10.3958 0.125378 0.734382 -1.326982
2012-02-08 08:26:56 51°12.057 2°47.993 10.3658 0.04744 0.268245 -1.326982
2012-02-08 08:27:01 51°12.046 2°47.968 10.4003 0.07592 0.435608 -1.326982
2012-02-08 08:27:05 51°12.038 2°47.947 10.4095 0.07592 0.435608 -1.326982
2012-02-08 08:27:11 51°12.027 2°47.915 10.3872 0.053095 0.30112 -1.326982
2012-02-08 08:27:16 51°12.017 2°47.889 10.3934 0.043841 0.247404 -1.326982
2012-02-08 08:27:21 51°12.007 2°47.863 10.3906 0.055562 0.315457 -1.326982
2012-02-08 08:27:25 51°12 2°47.84 10.4145 0.071807 0.411145 -1.326982
2012-02-08 08:27:31 51°11.989 2°47.81 10.3678 0.043636 0.246226 -1.326982
2012-02-08 08:27:36 51°11.98 2°47.784 10.4126 0.043636 0.246226 -1.326982
2012-02-08 08:27:41 51°11.971 2°47.757 10.3536 0.104093 0.604603 -1.326982
2012-02-08 08:27:45 51°11.964 2°47.735 10.4314 0.046309 0.261635 -1.326982
2012-02-08 08:27:51 51°11.952 2°47.704 10.3354 0.059572 0.33903 -1.326982
2012-02-08 08:27:56 51°11.942 2°47.679 10.4012 0.07921 0.455117 -1.326982
2012-02-08 08:28:01 51°11.932 2°47.652 10.4016 0.057927 0.32928 -1.326982
2012-02-08 08:28:05 51°11.925 2°47.63 10.4001 0.057927 0.32928 -1.326982
2012-02-08 08:28:10 51°11.915 2°47.604 10.424 0.038187 0.214856 -1.326982
2012-02-08 08:28:16 51°11.904 2°47.572 10.3549 0.071088 0.406942 -1.326982
2012-02-08 08:28:21 51°11.895 2°47.546 10.4331 0.041168 0.23198 -1.326982
2012-02-08 08:28:25 51°11.886 2°47.526 10.4089 0.101831 0.591021 -1.326982
2012-02-08 08:28:31 51°11.877 2°47.493 10.4024 0.054534 0.309508 -1.326982
2012-02-08 08:28:36 51°11.868 2°47.466 10.4062 0.054534 0.309508 -1.326982
2012-02-08 08:28:41 51°11.861 2°47.439 10.4111 0.056282 0.319676 -1.326982
2012-02-08 08:28:45 51°11.855 2°47.417 10.3829 0.07664 0.439805 -1.326982
2012-02-08 08:28:51 51°11.847 2°47.383 10.404 0.048776 0.275948 -1.326982
2012-02-08 08:28:56 51°11.841 2°47.355 10.4132 0.050421 0.285457 -1.326982
2012-02-08 08:29:01 51°11.834 2°47.328 10.3674 0.079724 0.458241 -1.326982
2012-02-08 08:29:05 51°11.83 2°47.305 10.4253 0.079724 0.458241 -1.326982
2012-02-08 08:29:11 51°11.821 2°47.272 10.3913 0.050113 0.283738 -1.326982
2012-02-08 08:29:16 51°11.815 2°47.243 10.3927 0.047029 0.265827 -1.326982
2012-02-08 08:29:21 51°11.809 2°47.215 10.4081 0.048571 0.274729 -1.326982
2012-02-08 08:29:25 51°11.803 2°47.193 10.3922 0.060909 0.346761 -1.326982
2012-02-08 08:29:31 51°11.796 2°47.16 10.4239 0.039318 0.22133 -1.326982
2012-02-08 08:29:36 51°11.789 2°47.133 10.4062 0.039318 0.22133 -1.326982
2012-02-08 08:29:41 51°11.782 2°47.105 10.3998 0.047337 0.267644 -1.326982
2012-02-08 08:29:45 51°11.776 2°47.083 10.4081 0.043122 0.243269 -1.326982
2012-02-08 08:29:51 51°11.768 2°47.05 10.4235 0.038701 0.217775 -1.326982
2012-02-08 08:29:56 51°11.76 2°47.023 10.3804 0.077359 0.444071 -1.326982
2012-02-08 08:30:01 51°11.753 2°46.995 10.4327 0.05001 0.28313 -1.326982
2012-02-08 08:30:05 51°11.745 2°46.974 10.4203 0.05001 0.28313 -1.326982
2012-02-08 08:30:11 51°11.738 2°46.94 10.4356 0.055151 0.313089 -1.326982
2012-02-08 08:30:16 51°11.729 2°46.913 10.4056 0.082295 0.473552 -1.326982
2012-02-08 08:30:21 51°11.725 2°46.885 10.4371 0.057721 0.328131 -1.326982
2012-02-08 08:30:25 51°11.721 2°46.862 10.415 0.084968 0.489476 -1.326982
2012-02-08 08:30:31 51°11.715 2°46.827 10.4393 0.054431 0.308879 -1.326982
2012-02-08 08:30:36 51°11.709 2°46.799 10.4277 0.054431 0.308879 -1.326982
2012-02-08 08:30:41 51°11.705 2°46.769 10.4222 0.093914 0.543112 -1.326982
2012-02-08 08:30:45 51°11.702 2°46.745 10.4532 0.04744 0.268175 -1.326982
2012-02-08 08:30:50 51°11.697 2°46.716 10.403 0.071602 0.40988 -1.326982
2012-02-08 08:30:55 51°11.695 2°46.686 10.4172 0.046 0.25984 -1.326982
2012-02-08 08:31:01 51°11.69 2°46.651 10.4308 0.047543 0.268761 -1.326982
2012-02-08 08:31:05 51°11.688 2°46.626 10.4317 0.047543 0.268761 -1.326982
2012-02-08 08:31:11 51°11.684 2°46.59 10.3939 0.087642 0.505463 -1.326982
2012-02-08 08:31:16 51°11.682 2°46.559 10.4549 0.045281 0.255682 -1.326982
2012-02-08 08:31:21 51°11.679 2°46.529 10.383 0.107692 0.626418 -1.326982
2012-02-08 08:31:26 51°11.677 2°46.498 10.4567 0.081986 0.47163 -1.326982
2012-02-08 08:31:31 51°11.674 2°46.468 10.4062 0.075612 0.433635 -1.326982
2012-02-08 08:31:36 51°11.672 2°46.437 10.4492 0.075612 0.433635 -1.326982
2012-02-08 08:31:41 51°11.669 2°46.407 10.4382 0.081884 0.470981 -1.326982
2012-02-08 08:31:45 51°11.666 2°46.382 10.4152 0.06389 0.364261 -1.326982
2012-02-08 08:31:51 51°11.664 2°46.345 10.4252 0.059058 0.33592 -1.326982
2012-02-08 08:31:56 51°11.661 2°46.314 10.422 0.047131 0.266378 -1.326982
2012-02-08 08:32:01 51°11.659 2°46.284 10.4649 0.066769 0.381244 -1.326982
2012-02-08 08:32:05 51°11.656 2°46.26 10.3945 0.066769 0.381244 -1.326982
2012-02-08 08:32:10 51°11.655 2°46.228 10.4672 0.05073 0.287277 -1.326982
2012-02-08 08:32:16 51°11.651 2°46.191 10.393 0.115507 0.673807 -1.326982
2012-02-08 08:32:21 51°11.65 2°46.16 10.4626 0.05731 0.325656 -1.326982
2012-02-08 08:32:25 51°11.647 2°46.135 10.4275 0.07191 0.411693 -1.326982
2012-02-08 08:32:30 51°11.645 2°46.104 10.425 0.064096 0.36554 -1.326982
2012-02-08 08:32:36 51°11.643 2°46.067 10.4185 0.064096 0.36554 -1.326982
2012-02-08 08:32:41 51°11.64 2°46.037 10.4547 0.044664 0.252122 -1.326982
2012-02-08 08:32:45 51°11.639 2°46.012 10.4424 0.047851 0.270559 -1.326982
2012-02-08 08:32:51 51°11.636 2°45.975 10.4482 0.083837 0.482686 -1.326982
2012-02-08 08:32:56 51°11.635 2°45.944 10.4334 0.059675 0.339532 -1.326982
2012-02-08 08:33:01 51°11.633 2°45.913 10.4454 0.065947 0.376434 -1.326982
2012-02-08 08:33:05 51°11.631 2°45.889 10.4264 0.065947 0.376434 -1.326982
2012-02-08 08:33:11 51°11.629 2°45.852 10.4474 0.051861 0.293891 -1.326982
2012-02-08 08:33:16 51°11.627 2°45.821 10.4562 0.055459 0.31485 -1.326982
2012-02-08 08:33:21 51°11.626 2°45.791 10.4367 0.053197 0.301647 -1.326982
2012-02-08 08:33:26 51°11.624 2°45.76 10.4433 0.044972 0.253885 -1.326982
2012-02-08 08:33:30 51°11.623 2°45.736 10.4323 0.057516 0.326829 -1.326982
2012-02-08 08:33:36 51°11.621 2°45.699 10.4156 0.057516 0.326829 -1.326982
2012-02-08 08:33:41 51°11.619 2°45.668 10.4415 0.059572 0.338878 -1.326982
2012-02-08 08:33:46 51°11.617 2°45.638 10.4578 0.042402 0.239023 -1.326982
2012-02-08 08:33:51 51°11.615 2°45.608 10.4729 0.046617 0.263343 -1.326982
2012-02-08 08:33:56 51°11.612 2°45.578 10.4586 0.045898 0.259183 -1.326982
2012-02-08 08:34:01 51°11.61 2°45.547 10.4592 0.048674 0.275219 -1.326982
2012-02-08 08:34:05 51°11.607 2°45.524 10.4333 0.048674 0.275219 -1.326982
2012-02-08 08:34:11 51°11.603 2°45.488 10.4679 0.03685 0.207139 -1.326982
2012-02-08 08:34:16 51°11.599 2°45.457 10.4583 0.04487 0.253249 -1.326982
2012-02-08 08:34:21 51°11.595 2°45.427 10.4474 0.042402 0.238983 -1.326982
2012-02-08 08:34:25 51°11.592 2°45.403 10.4765 0.055871 0.317153 -1.326982
2012-02-08 08:34:31 51°11.586 2°45.368 10.4664 0.046103 0.260392 -1.326982
2012-02-08 08:34:36 51°11.582 2°45.338 10.475 0.046103 0.260392 -1.326982
2012-02-08 08:34:41 51°11.578 2°45.308 10.4396 0.062862 0.358217 -1.326982
2012-02-08 08:34:45 51°11.576 2°45.283 10.4868 0.050627 0.286653 -1.326982
2012-02-08 08:34:50 51°11.57 2°45.254 10.4384 0.13453 0.790133 -1.326982
2012-02-08 08:34:56 51°11.568 2°45.217 10.4676 0.05073 0.287203 -1.326982
2012-02-08 08:35:01 51°11.564 2°45.188 10.4664 0.083117 0.478285 -1.326982
2012-02-08 08:35:05 51°11.562 2°45.164 10.4562 0.083117 0.478285 -1.326982
2012-02-08 08:35:11 51°11.559 2°45.128 10.4724 0.077874 0.446987 -1.326982
2012-02-08 08:35:16 51°11.556 2°45.098 10.4548 0.063479 0.361779 -1.326982
2012-02-08 08:35:21 51°11.554 2°45.069 10.4728 0.045384 0.256196 -1.326982
2012-02-08 08:35:25 51°11.553 2°45.044 10.4472 0.104916 0.609432 -1.326982
2012-02-08 08:35:31 51°11.55 2°45.009 10.4608 0.041271 0.232513 -1.326982
2012-02-08 08:35:36 51°11.548 2°44.98 10.4756 0.041271 0.232513 -1.326982
2012-02-08 08:35:41 51°11.548 2°44.95 10.4756 0.121882 0.712578 -1.326982
2012-02-08 08:35:45 51°11.545 2°44.926 10.4804 0.069751 0.398833 -1.326982
2012-02-08 08:35:50 51°11.542 2°44.897 10.4444 0.052272 0.296232 -1.326982
2012-02-08 08:35:56 51°11.539 2°44.862 10.4691 0.11345 0.661179 -1.326982
2012-02-08 08:36:01 51°11.538 2°44.833 10.4667 0.056488 0.320801 -1.326982
2012-02-08 08:36:05 51°11.535 2°44.81 10.4537 0.056488 0.320801 -1.326982
2012-02-08 08:36:11 51°11.532 2°44.775 10.4871 0.047748 0.269913 -1.326982
2012-02-08 08:36:16 51°11.529 2°44.745 10.4498 0.093194 0.538691 -1.326982
2012-02-08 08:36:21 51°11.527 2°44.716 10.4771 0.048468 0.274087 -1.326982
2012-02-08 08:36:25 51°11.525 2°44.693 10.4805 0.049393 0.279437 -1.326982
2012-02-08 08:36:31 51°11.522 2°44.658 10.4393 0.053197 0.301579 -1.326982
2012-02-08 08:36:36 51°11.521 2°44.628 10.4807 0.053197 0.301579 -1.326982
2012-02-08 08:36:41 51°11.518 2°44.598 10.4754 0.074583 0.427431 -1.326982
2012-02-08 08:36:45 51°11.518 2°44.575 10.468 0.055768 0.316582 -1.326982
2012-02-08 08:36:51 51°11.514 2°44.539 10.4649 0.070059 0.40056 -1.326982
2012-02-08 08:36:56 51°11.513 2°44.51 10.4612 0.041271 0.232436 -1.326982
2012-02-08 08:37:01 51°11.51 2°44.481 10.4801 0.082809 0.476407 -1.326982
2012-02-08 08:37:05 51°11.509 2°44.457 10.4674 0.082809 0.476407 -1.326982
2012-02-08 08:37:10 51°11.507 2°44.428 10.4872 0.04271 0.240782 -1.326982
2012-02-08 08:37:16 51°11.505 2°44.393 10.494 0.048674 0.275264 -1.326982
2012-02-08 08:37:21 51°11.502 2°44.362 10.4727 0.098849 0.572705 -1.326982
2012-02-08 08:37:25 51°11.501 2°44.339 10.4663 0.041271 0.232491 -1.326982
2012-02-08 08:37:30 51°11.498 2°44.31 10.4776 0.131651 0.772262 -1.326982
2012-02-08 08:37:35 51°11.497 2°44.279 10.465 0.131651 0.772262 -1.326982
2012-02-08 08:37:41 51°11.494 2°44.244 10.4822 0.045692 0.257961 -1.326982
2012-02-08 08:37:45 51°11.493 2°44.22 10.4888 0.085996 0.495358 -1.326982
2012-02-08 08:37:51 51°11.491 2°44.185 10.4891 0.08466 0.487447 -1.326982
2012-02-08 08:37:56 51°11.491 2°44.156 10.4999 0.047131 0.26629 -1.326982
2012-02-08 08:38:01 51°11.488 2°44.128 10.4859 0.111805 0.651166 -1.326982
2012-02-08 08:38:05 51°11.49 2°44.104 10.481 0.111805 0.651166 -1.326982
2012-02-08 08:38:11 51°11.487 2°44.07 10.4489 0.062245 0.354516 -1.326982
2012-02-08 08:38:16 51°11.486 2°44.041 10.49 0.053917 0.305731 -1.326982
2012-02-08 08:38:21 51°11.484 2°44.012 10.4622 0.078491 0.450642 -1.326982
2012-02-08 08:38:26 51°11.484 2°43.983 10.5027 0.083632 0.481275 -1.326982
2012-02-08 08:38:31 51°11.483 2°43.954 10.46 0.050319 0.284796 -1.326982
2012-02-08 08:38:36 51°11.481 2°43.925 10.4852 0.050319 0.284796 -1.326982
2012-02-08 08:38:41 51°11.481 2°43.896 10.5021 0.070676 0.40427 -1.326982
2012-02-08 08:38:45 51°11.479 2°43.873 10.4926 0.09998 0.579497 -1.326982
2012-02-08 08:38:51 51°11.48 2°43.838 10.4988 0.05659 0.321361 -1.326982
2012-02-08 08:38:56 51°11.478 2°43.809 10.492 0.07335 0.420062 -1.326982
2012-02-08 08:39:01 51°11.477 2°43.78 10.5025 0.071088 0.406682 -1.326982
2012-02-08 08:39:05 51°11.476 2°43.757 10.4722 0.071088 0.406682 -1.326982
2012-02-08 08:39:11 51°11.476 2°43.722 10.4716 0.049393 0.279406 -1.326982
2012-02-08 08:39:16 51°11.475 2°43.694 10.4989 0.059675 0.339367 -1.326982
2012-02-08 08:39:21 51°11.474 2°43.665 10.5034 0.067489 0.385385 -1.326982
2012-02-08 08:39:26 51°11.473 2°43.637 10.4828 0.046412 0.262109 -1.326982
2012-02-08 08:39:30 51°11.472 2°43.615 10.4977 0.046617 0.263314 -1.326982
2012-02-08 08:39:36 51°11.47 2°43.58 10.4707 0.046617 0.263314 -1.326982
2012-02-08 08:39:41 51°11.471 2°43.551 10.4743 0.063993 0.364825 -1.326982
2012-02-08 08:39:45 51°11.469 2°43.529 10.49 0.079107 0.454307 -1.326982
2012-02-08 08:39:51 51°11.469 2°43.495 10.4922 0.056899 0.323165 -1.326982
2012-02-08 08:39:56 51°11.466 2°43.467 10.5163 0.069957 0.399929 -1.326982
2012-02-08 08:40:01 51°11.466 2°43.438 10.4739 0.046823 0.264489 -1.326982
2012-02-08 08:40:05 51°11.465 2°43.415 10.4807 0.046823 0.264489 -1.326982
2012-02-08 08:40:11 51°11.463 2°43.382 10.4981 0.047131 0.266265 -1.326982
2012-02-08 08:40:16 51°11.463 2°43.353 10.5299 0.038906 0.21887 -1.326982
2012-02-08 08:40:21 51°11.461 2°43.325 10.4674 0.074583 0.427375 -1.326982
2012-02-08 08:40:25 51°11.461 2°43.302 10.4905 0.063479 0.361684 -1.326982
2012-02-08 08:40:30 51°11.46 2°43.274 10.4749 0.042608 0.240098 -1.326982
2012-02-08 08:40:36 51°11.459 2°43.24 10.5094 0.042608 0.240098 -1.326982
2012-02-08 08:40:41 51°11.458 2°43.211 10.4708 0.084248 0.484924 -1.326982
2012-02-08 08:40:46 51°11.456 2°43.184 10.493 0.055357 0.314086 -1.326982
2012-02-08 08:40:51 51°11.456 2°43.155 10.5266 0.071602 0.409634 -1.326982
2012-02-08 08:40:56 51°11.455 2°43.126 10.5344 0.058749 0.333944 -1.326982
2012-02-08 08:41:01 51°11.452 2°43.098 10.448 0.061011 0.347216 -1.326982
2012-02-08 08:41:05 51°11.452 2°43.075 10.5444 0.061011 0.347216 -1.326982
2012-02-08 08:41:11 51°11.45 2°43.04 10.5 0.117358 0.684678 -1.326982
2012-02-08 08:41:16 51°11.449 2°43.011 10.4689 0.051038 0.288927 -1.326982
2012-02-08 08:41:21 51°11.447 2°42.983 10.4868 0.055151 0.312879 -1.326982
2012-02-08 08:41:25 51°11.446 2°42.96 10.5013 0.0825 0.474476 -1.326982
2012-02-08 08:41:31 51°11.444 2°42.926 10.4812 0.043739 0.246638 -1.326982
2012-02-08 08:41:36 51°11.442 2°42.897 10.5295 0.043739 0.246638 -1.326982
2012-02-08 08:41:41 51°11.439 2°42.869 10.4447 0.071293 0.407823 -1.326982
2012-02-08 08:41:45 51°11.439 2°42.846 10.5436 0.045692 0.257913 -1.326982
2012-02-08 08:41:50 51°11.435 2°42.819 10.5193 0.05988 0.340599 -1.326982
2012-02-08 08:41:56 51°11.431 2°42.785 10.5181 0.071293 0.4078 -1.326982
2012-02-08 08:42:01 51°11.428 2°42.756 10.4398 0.049599 0.280542 -1.326982
2012-02-08 08:42:05 51°11.425 2°42.734 10.5156 0.049599 0.280542 -1.326982
2012-02-08 08:42:11 51°11.422 2°42.7 10.4424 0.11561 0.674061 -1.326982
2012-02-08 08:42:16 51°11.417 2°42.673 10.4837 0.052478 0.297297 -1.326982
2012-02-08 08:42:21 51°11.414 2°42.645 10.5162 0.046206 0.260895 -1.326982
2012-02-08 08:42:25 51°11.409 2°42.624 10.4443 0.048365 0.273405 -1.326982
2012-02-08 08:42:31 51°11.403 2°42.591 10.4903 0.03757 0.211184 -1.326982
2012-02-08 08:42:36 51°11.397 2°42.564 10.5185 0.03757 0.211184 -1.326982
2012-02-08 08:42:41 51°11.391 2°42.538 10.5143 0.035308 0.198241 -1.326982
2012-02-08 08:42:45 51°11.385 2°42.516 10.5311 0.039729 0.22354 -1.326982
2012-02-08 08:42:51 51°11.377 2°42.484 10.5021 0.047543 0.268588 -1.326982
2012-02-08 08:42:56 51°11.37 2°42.458 10.507 0.056282 0.319474 -1.326982
2012-02-08 08:43:01 51°11.363 2°42.431 10.5236 0.061937 0.352604 -1.326982
2012-02-08 08:43:05 51°11.355 2°42.411 10.4936 0.061937 0.352604 -1.326982
2012-02-08 08:43:11 51°11.348 2°42.378 10.527 0.069751 0.398683 -1.326982
2012-02-08 08:43:16 51°11.339 2°42.353 10.4621 0.0934 0.539692 -1.326982
2012-02-08 08:43:21 51°11.331 2°42.327 10.5228 0.0752 0.430973 -1.326982
2012-02-08 08:43:25 51°11.326 2°42.305 10.5145 0.041374 0.233006 -1.326982
2012-02-08 08:43:31 51°11.317 2°42.274 10.5179 0.066255 0.378055 -1.326982
2012-02-08 08:43:36 51°11.31 2°42.248 10.5191 0.066255 0.378055 -1.326982
2012-02-08 08:43:41 51°11.303 2°42.222 10.5199 0.04672 0.263875 -1.326982
2012-02-08 08:43:45 51°11.298 2°42.201 10.5069 0.063273 0.360488 -1.326982
2012-02-08 08:43:51 51°11.289 2°42.168 10.514 0.05731 0.325492 -1.326982
2012-02-08 08:43:56 51°11.283 2°42.141 10.4806 0.052683 0.298478 -1.326982
2012-02-08 08:44:01 51°11.277 2°42.115 10.5311 0.055871 0.317065 -1.326982
2012-02-08 08:44:05 51°11.271 2°42.093 10.5234 0.055871 0.317065 -1.326982
2012-02-08 08:44:11 51°11.263 2°42.06 10.4974 0.045281 0.255522 -1.326982
2012-02-08 08:44:16 51°11.257 2°42.033 10.5237 0.042196 0.23773 -1.326982
2012-02-08 08:44:21 51°11.251 2°42.005 10.5243 0.041477 0.233589 -1.326982
2012-02-08 08:44:25 51°11.245 2°41.984 10.4941 0.04271 0.240694 -1.326982
2012-02-08 08:44:30 51°11.238 2°41.956 10.5173 0.058235 0.33089 -1.326982
2012-02-08 08:44:36 51°11.23 2°41.922 10.5306 0.058235 0.33089 -1.326982
2012-02-08 08:44:41 51°11.221 2°41.897 10.5138 0.047748 0.269789 -1.326982
2012-02-08 08:44:45 51°11.215 2°41.875 10.515 0.038598 0.217051 -1.326982
2012-02-08 08:44:51 51°11.205 2°41.844 10.497 0.043225 0.243638 -1.326982
2012-02-08 08:44:56 51°11.196 2°41.819 10.5399 0.044561 0.251334 -1.326982
2012-02-08 08:45:01 51°11.186 2°41.793 10.4751 0.03942 0.221766 -1.326982
2012-02-08 08:45:06 51°11.176 2°41.768 10.5581 0.03942 0.221766 -1.326982
2012-02-08 08:45:11 51°11.165 2°41.743 10.4847 0.122808 0.717903 -1.326982
2012-02-08 08:45:16 51°11.155 2°41.719 10.5191 0.050216 0.284078 -1.326982
2012-02-08 08:45:21 51°11.145 2°41.695 10.5273 0.088875 0.512491 -1.326982
2012-02-08 08:45:25 51°11.136 2°41.675 10.5247 0.053095 0.300824 -1.326982
2012-02-08 08:45:31 51°11.124 2°41.645 10.4922 0.041374 0.232981 -1.326982
2012-02-08 08:45:36 51°11.113 2°41.621 10.5622 0.041374 0.232981 -1.326982
2012-02-08 08:45:41 51°11.102 2°41.597 10.5091 0.112319 0.653979 -1.326982
2012-02-08 08:45:45 51°11.095 2°41.578 10.5337 0.04672 0.263841 -1.326982
2012-02-08 08:45:51 51°11.081 2°41.549 10.5018 0.055871 0.317053 -1.326982
2012-02-08 08:45:56 51°11.071 2°41.525 10.551 0.038598 0.217055 -1.326982
2012-02-08 08:46:01 51°11.058 2°41.502 10.5587 0.237988 1.437881 -1.326982
2012-02-08 08:46:05 51°11.052 2°41.482 10.4791 0.237988 1.437881 -1.326982
2012-02-08 08:46:10 51°11.04 2°41.459 10.541 0.066358 0.378576 -1.326982
2012-02-08 08:46:16 51°11.026 2°41.429 10.5489 0.059572 0.338708 -1.326982
2012-02-08 08:46:21 51°11.014 2°41.408 10.5159 0.120031 0.700879 -1.326982
2012-02-08 08:46:25 51°11.006 2°41.389 10.4888 0.059366 0.337452 -1.326982
2012-02-08 08:46:31 51°10.992 2°41.361 10.5116 0.045178 0.254858 -1.326982
2012-02-08 08:46:36 51°10.981 2°41.335 10.5623 0.045178 0.254858 -1.326982
2012-02-08 08:46:41 51°10.968 2°41.314 10.4906 0.089698 0.517353 -1.326982
2012-02-08 08:46:45 51°10.961 2°41.295 10.5719 0.061937 0.352585 -1.326982
2012-02-08 08:46:51 51°10.947 2°41.266 10.4544 0.117769 0.687053 -1.326982
2012-02-08 08:46:56 51°10.938 2°41.241 10.5568 0.095148 0.550131 -1.326982
2012-02-08 08:47:01 51°10.926 2°41.216 10.5231 0.072835 0.416904 -1.326982
2012-02-08 08:47:05 51°10.919 2°41.196 10.5353 0.072835 0.416904 -1.326982
2012-02-08 08:47:11 51°10.906 2°41.167 10.4853 0.130314 0.76383 -1.326982
2012-02-08 08:47:16 51°10.895 2°41.142 10.5645 0.0533 0.302022 -1.326982
2012-02-08 08:47:21 51°10.885 2°41.116 10.4386 0.101728 0.58984 -1.326982
2012-02-08 08:47:25 51°10.877 2°41.095 10.5562 0.116535 0.679604 -1.326982
2012-02-08 08:47:31 51°10.864 2°41.066 10.5244 0.050936 0.28826 -1.326982
2012-02-08 08:47:36 51°10.854 2°41.042 10.5034 0.050936 0.28826 -1.326982
2012-02-08 08:47:41 51°10.843 2°41.019 10.5452 0.047543 0.268558 -1.326982
2012-02-08 08:47:46 51°10.832 2°40.994 10.5197 0.068414 0.390725 -1.326982
2012-02-08 08:47:51 51°10.821 2°40.97 10.5366 0.051552 0.291868 -1.326982
2012-02-08 08:47:56 51°10.81 2°40.947 10.4509 0.072116 0.412625 -1.326982
2012-02-08 08:48:01 51°10.799 2°40.922 10.5434 0.097718 0.565649 -1.326982
2012-02-08 08:48:05 51°10.79 2°40.902 10.5124 0.097718 0.565649 -1.326982
2012-02-08 08:48:11 51°10.779 2°40.872 10.5795 0.05073 0.287086 -1.326982
2012-02-08 08:48:16 51°10.768 2°40.847 10.4946 0.137307 0.806665 -1.326982
2012-02-08 08:48:21 51°10.759 2°40.821 10.5457 0.048776 0.275713 -1.326982
2012-02-08 08:48:25 51°10.749 2°40.803 10.5309 0.083426 0.479829 -1.326982
2012-02-08 08:48:31 51°10.737 2°40.773 10.5353 0.05803 0.3296 -1.326982
2012-02-08 08:48:36 51°10.727 2°40.748 10.5624 0.05803 0.3296 -1.326982
2012-02-08 08:48:41 51°10.716 2°40.723 10.4888 0.042196 0.237665 -1.326982
2012-02-08 08:48:45 51°10.708 2°40.703 10.5738 0.043944 0.247738 -1.326982
2012-02-08 08:48:50 51°10.697 2°40.678 10.5108 0.096793 0.559947 -1.326982
2012-02-08 08:48:55 51°10.688 2°40.652 10.5435 0.045589 0.257243 -1.326982
2012-02-08 08:49:01 51°10.674 2°40.623 10.538 0.12579 0.735988 -1.326982
2012-02-08 08:49:06 51°10.664 2°40.596 10.5127 0.12579 0.735988 -1.326982
2012-02-08 08:49:11 51°10.653 2°40.572 10.5175 0.052786 0.299011 -1.326982
2012-02-08 08:49:16 51°10.642 2°40.546 10.5339 0.079724 0.45774 -1.326982
2012-02-08 08:49:21 51°10.634 2°40.519 10.5638 0.051347 0.29064 -1.326982
2012-02-08 08:49:25 51°10.625 2°40.5 10.5085 0.129286 0.75737 -1.326982
2012-02-08 08:49:31 51°10.613 2°40.468 10.5284 0.042505 0.239449 -1.326982
2012-02-08 08:49:36 51°10.603 2°40.443 10.5648 0.042505 0.239449 -1.326982
2012-02-08 08:49:41 51°10.593 2°40.417 10.5655 0.040963 0.230549 -1.326982
2012-02-08 08:49:46 51°10.583 2°40.392 10.5095 0.055871 0.316923 -1.326982
2012-02-08 08:49:51 51°10.573 2°40.367 10.5622 0.039112 0.21989 -1.326982
2012-02-08 08:49:56 51°10.562 2°40.34 10.55 0.074583 0.427134 -1.326982
2012-02-08 08:50:01 51°10.552 2°40.313 10.5128 0.046 0.259625 -1.326982
2012-02-08 08:50:05 51°10.545 2°40.293 10.5729 0.046 0.259625 -1.326982
2012-02-08 08:50:11 51°10.533 2°40.261 10.4893 0.166306 0.985921 -1.326982
2012-02-08 08:50:16 51°10.522 2°40.237 10.5773 0.049188 0.278042 -1.326982
2012-02-08 08:50:21 51°10.511 2°40.212 10.493 0.114787 0.668764 -1.326982
2012-02-08 08:50:25 51°10.504 2°40.191 10.5967 0.084146 0.484063 -1.326982
2012-02-08 08:50:30 51°10.493 2°40.166 10.5381 0.106972 0.621393 -1.326982
2012-02-08 08:50:36 51°10.482 2°40.134 10.5706 0.106972 0.621393 -1.326982
2012-02-08 08:50:41 51°10.472 2°40.109 10.5488 0.073247 0.419185 -1.326982
2012-02-08 08:50:45 51°10.465 2°40.087 10.5222 0.088567 0.510595 -1.326982
2012-02-08 08:50:51 51°10.454 2°40.055 10.5811 0.049702 0.281077 -1.326982
2012-02-08 08:50:56 51°10.446 2°40.028 10.4942 0.167848 0.995502 -1.326982
2012-02-08 08:51:01 51°10.44 2°40 10.5714 0.085379 0.491435 -1.326982
2012-02-08 08:51:05 51°10.433 2°39.978 10.5646 0.085379 0.491435 -1.326982
2012-02-08 08:51:11 51°10.424 2°39.945 10.5573 0.061834 0.351889 -1.326982
2012-02-08 08:51:16 51°10.418 2°39.918 10.5314 0.080444 0.46201 -1.326982
2012-02-08 08:51:21 51°10.411 2°39.89 10.5727 0.08065 0.463235 -1.326982
2012-02-08 08:51:25 51°10.406 2°39.868 10.5319 0.072424 0.414358 -1.326982
2012-02-08 08:51:30 51°10.4 2°39.839 10.5763 0.116124 0.676882 -1.326982
2012-02-08 08:51:36 51°10.392 2°39.807 10.4865 0.116124 0.676882 -1.326982
2012-02-08 08:51:41 51°10.385 2°39.779 10.5244 0.058338 0.331356 -1.326982
2012-02-08 08:51:45 51°10.38 2°39.756 10.5447 0.078285 0.449088 -1.326982
2012-02-08 08:51:51 51°10.372 2°39.722 10.5886 0.066769 0.380887 -1.326982
2012-02-08 08:51:56 51°10.366 2°39.693 10.5243 0.071088 0.406423 -1.326982
2012-02-08 08:52:01 51°10.359 2°39.665 10.5731 0.063068 0.359124 -1.326982
2012-02-08 08:52:06 51°10.353 2°39.637 10.5476 0.063068 0.359124 -1.326982
2012-02-08 08:52:11 51°10.345 2°39.609 10.5703 0.079622 0.457068 -1.326982
2012-02-08 08:52:16 51°10.34 2°39.579 10.5325 0.061834 0.351869 -1.326982
2012-02-08 08:52:21 51°10.332 2°39.552 10.543 0.076228 0.436874 -1.326982
2012-02-08 08:52:25 51°10.327 2°39.529 10.571 0.040963 0.230536 -1.326982
2012-02-08 08:52:31 51°10.318 2°39.495 10.5328 0.078182 0.448476 -1.326982
2012-02-08 08:52:36 51°10.312 2°39.467 10.5614 0.078182 0.448476 -1.326982
2012-02-08 08:52:41 51°10.304 2°39.438 10.5642 0.041682 0.234669 -1.326982
2012-02-08 08:52:45 51°10.299 2°39.416 10.5444 0.067797 0.386988 -1.326982
2012-02-08 08:52:51 51°10.29 2°39.384 10.5532 0.105636 0.613289 -1.326982
2012-02-08 08:52:56 51°10.284 2°39.355 10.6005 0.058133 0.330177 -1.326982
2012-02-08 08:53:01 51°10.277 2°39.328 10.5165 0.051244 0.289978 -1.326982
2012-02-08 08:53:05 51°10.272 2°39.305 10.5984 0.051244 0.289978 -1.326982
2012-02-08 08:53:10 51°10.264 2°39.278 10.5347 0.139363 0.819096 -1.326982
2012-02-08 08:53:16 51°10.256 2°39.244 10.5813 0.049702 0.281004 -1.326982
2012-02-08 08:53:21 51°10.248 2°39.216 10.5386 0.078388 0.449708 -1.326982
2012-02-08 08:53:25 51°10.242 2°39.194 10.5604 0.099569 0.576621 -1.326982
2012-02-08 08:53:31 51°10.234 2°39.159 10.5623 0.054842 0.310934 -1.326982
2012-02-08 08:53:36 51°10.227 2°39.132 10.595 0.054842 0.310934 -1.326982
2012-02-08 08:53:41 51°10.219 2°39.105 10.5417 0.048776 0.275627 -1.326982
2012-02-08 08:53:45 51°10.215 2°39.082 10.6057 0.047851 0.27028 -1.326982
2012-02-08 08:53:51 51°10.204 2°39.048 10.5346 0.187182 1.116219 -1.326982
2012-02-08 08:53:56 51°10.199 2°39.02 10.571 0.0533 0.301921 -1.326982
2012-02-08 08:54:01 51°10.19 2°38.993 10.587 0.117563 0.685631 -1.326982
2012-02-08 08:54:05 51°10.185 2°38.97 10.5503 0.117563 0.685631 -1.326982
2012-02-08 08:54:11 51°10.175 2°38.937 10.594 0.059366 0.337358 -1.326982
2012-02-08 08:54:16 51°10.169 2°38.909 10.5609 0.118797 0.693159 -1.326982
2012-02-08 08:54:21 51°10.161 2°38.883 10.5969 0.094736 0.54746 -1.326982
2012-02-08 08:54:26 51°10.154 2°38.855 10.5393 0.05145 0.291146 -1.326982
2012-02-08 08:54:31 51°10.146 2°38.828 10.5895 0.085688 0.493205 -1.326982
2012-02-08 08:54:36 51°10.139 2°38.799 10.59 0.085688 0.493205 -1.326982
2012-02-08 08:54:41 51°10.131 2°38.772 10.5962 0.045589 0.257196 -1.326982
2012-02-08 08:54:45 51°10.125 2°38.751 10.5445 0.065021 0.370589 -1.326982
2012-02-08 08:54:51 51°10.117 2°38.717 10.5816 0.053609 0.303724 -1.326982
2012-02-08 08:54:56 51°10.11 2°38.688 10.5787 0.070162 0.400897 -1.326982
2012-02-08 08:55:01 51°10.103 2°38.66 10.5777 0.038392 0.215787 -1.326982
2012-02-08 08:55:05 51°10.096 2°38.638 10.5733 0.038392 0.215787 -1.326982
2012-02-08 08:55:11 51°10.087 2°38.604 10.5639 0.060497 0.344 -1.326982
2012-02-08 08:55:16 51°10.08 2°38.576 10.6048 0.063171 0.359729 -1.326982
2012-02-08 08:55:21 51°10.072 2°38.549 10.5549 0.050319 0.284601 -1.326982
2012-02-08 08:55:25 51°10.066 2°38.526 10.5662 0.061834 0.351843 -1.326982
2012-02-08 08:55:30 51°10.059 2°38.498 10.5815 0.046412 0.26194 -1.326982
2012-02-08 08:55:36 51°10.05 2°38.464 10.5841 0.046412 0.26194 -1.326982
2012-02-08 08:55:41 51°10.044 2°38.434 10.525 0.108001 0.627526 -1.326982
2012-02-08 08:55:46 51°10.037 2°38.406 10.6066 0.044664 0.251839 -1.326982
2012-02-08 08:55:50 51°10.03 2°38.383 10.5726 0.140803 0.827829 -1.326982
2012-02-08 08:55:55 51°10.024 2°38.354 10.6053 0.055048 0.312076 -1.326982
2012-02-08 08:56:01 51°10.013 2°38.321 10.5477 0.067797 0.386923 -1.326982